Time,TemperatureF,DewpointF,PressureIn,WindDirection,WindDirectionDegrees,WindSpeedMPH,WindSpeedGustMPH,Humidity,HourlyPrecipIn,Conditions,Clouds,dailyrainin,SoftwareType,DateUTC
2013-01-13 00:00:00,23.9,22.4,30.37,North,353,1.0,1.0,94,0.00,,CLR,0.00,VWS V14.01,2013-01-13 08:00:00,
2013-01-13 00:03:00,23.8,22.3,30.37,North,353,1.0,2.0,94,0.00,,CLR,0.00,VWS V14.01,2013-01-13 08:03:00,
2013-01-13 00:04:00,23.8,22.3,30.37,North,353,2.0,2.0,94,0.00,,CLR,0.00,VWS V14.01,2013-01-13 08:04:00,
2013-01-13 00:05:00,23.8,22.3,30.37,North,353,1.0,2.0,94,0.00,,CLR,0.00,VWS V14.01,2013-01-13 08:05:00,
2013-01-13 00:09:00,23.8,22.6,30.37,North,353,1.0,2.0,95,0.00,,CLR,0.00,VWS V14.01,2013-01-13 08:09:00,
2013-01-13 00:10:00,23.8,22.6,30.37,North,353,1.0,1.0,95,0.00,,CLR,0.00,VWS V14.01,2013-01-13 08:10:00,
2013-01-13 00:11:00,23.8,22.6,30.37,North,353,1.0,2.0,95,0.00,,CLR,0.00,VWS V14.01,2013-01-13 08:11:00,
2013-01-13 00:13:00,23.8,22.6,30.37,North,353,2.0,2.0,95,0.00,,CLR,0.00,VWS V14.01,2013-01-13 08:13:00,
2013-01-13 00:15:00,23.8,22.6,30.36,North,353,1.0,2.0,95,0.00,,CLR,0.00,VWS V14.01,2013-01-13 08:15:00,
2013-01-13 00:17:00,23.8,22.6,30.36,North,353,1.0,2.0,95,0.00,,CLR,0.00,VWS V14.01,2013-01-13 08:17:00,
2013-01-13 00:20:00,23.6,22.1,30.36,North,353,1.0,1.0,94,0.00,,CLR,0.00,VWS V14.01,2013-01-13 08:20:00,
2013-01-13 00:22:00,23.6,22.1,30.36,North,353,2.0,2.0,94,0.00,,CLR,0.00,VWS V14.01,2013-01-13 08:22:00,
2013-01-13 00:23:00,23.6,22.1,30.36,North,353,2.0,2.0,94,0.00,,CLR,0.00,VWS V14.01,2013-01-13 08:23:00,
2013-01-13 00:25:00,23.5,22.0,30.36,North,353,0.0,0.0,94,0.00,,CLR,0.00,VWS V14.01,2013-01-13 08:25:00,
2013-01-13 00:27:00,23.5,22.3,30.36,North,353,0.0,0.0,95,0.00,,CLR,0.00,VWS V14.01,2013-01-13 08:27:00,
2013-01-13 00:28:00,23.5,22.3,30.36,North,353,0.0,0.0,95,0.00,,CLR,0.00,VWS V14.01,2013-01-13 08:28:00,
2013-01-13 00:32:00,23.3,22.1,30.36,North,353,0.0,0.0,95,0.00,,CLR,0.00,VWS V14.01,2013-01-13 08:32:00,
2013-01-13 00:33:00,23.3,22.1,30.36,North,353,0.0,0.0,95,0.00,,CLR,0.00,VWS V14.01,2013-01-13 08:33:00,
2013-01-13 00:34:00,23.3,21.8,30.36,North,353,0.0,0.0,94,0.00,,CLR,0.00,VWS V14.01,2013-01-13 08:34:00,
2013-01-13 00:39:00,23.2,22.0,30.36,North,353,0.0,0.0,95,0.00,,CLR,0.00,VWS V14.01,2013-01-13 08:39:00,
2013-01-13 00:40:00,23.2,22.0,30.36,North,353,0.0,0.0,95,0.00,,CLR,0.00,VWS V14.01,2013-01-13 08:40:00,
2013-01-13 00:42:00,23.2,22.0,30.36,North,353,0.0,0.0,95,0.00,,CLR,0.00,VWS V14.01,2013-01-13 08:42:00,
2013-01-13 00:45:00,23.0,21.8,30.36,North,353,0.0,0.0,95,0.00,,CLR,0.00,VWS V14.01,2013-01-13 08:45:00,
2013-01-13 00:47:00,23.0,21.8,30.36,North,353,0.0,0.0,95,0.00,,CLR,0.00,VWS V14.01,2013-01-13 08:47:00,
2013-01-13 00:49:00,23.0,21.5,30.36,North,353,0.0,0.0,94,0.00,,CLR,0.00,VWS V14.01,2013-01-13 08:49:00,
2013-01-13 00:52:00,22.9,21.7,30.36,North,353,0.0,0.0,95,0.00,,CLR,0.00,VWS V14.01,2013-01-13 08:52:00,
2013-01-13 00:53:00,22.9,21.4,30.36,North,353,0.0,0.0,94,0.00,,CLR,0.00,VWS V14.01,2013-01-13 08:53:00,
2013-01-13 00:54:00,22.9,21.4,30.36,North,353,0.0,0.0,94,0.00,,CLR,0.00,VWS V14.01,2013-01-13 08:54:00,
2013-01-13 00:59:00,22.7,21.5,30.37,North,353,0.0,0.0,95,0.00,,CLR,0.00,VWS V14.01,2013-01-13 08:59:00,
2013-01-13 01:00:00,22.7,21.5,30.37,North,353,0.0,0.0,95,0.00,,CLR,0.00,VWS V14.01,2013-01-13 09:00:00,
2013-01-13 01:05:00,22.7,21.5,30.37,North,353,0.0,0.0,95,0.00,,CLR,0.00,VWS V14.01,2013-01-13 09:05:00,
2013-01-13 01:06:00,22.7,21.5,30.37,North,353,0.0,0.0,95,0.00,,CLR,0.00,VWS V14.01,2013-01-13 09:06:00,
2013-01-13 01:07:00,22.7,21.5,30.37,North,353,0.0,0.0,95,0.00,,CLR,0.00,VWS V14.01,2013-01-13 09:07:00,
2013-01-13 01:09:00,22.5,21.3,30.37,North,353,0.0,0.0,95,0.00,,CLR,0.00,VWS V14.01,2013-01-13 09:09:00,
2013-01-13 01:11:00,22.5,21.3,30.37,North,353,0.0,0.0,95,0.00,,CLR,0.00,VWS V14.01,2013-01-13 09:11:00,
2013-01-13 01:13:00,22.5,21.3,30.37,North,353,1.0,2.0,95,0.00,,CLR,0.00,VWS V14.01,2013-01-13 09:13:00,
2013-01-13 01:14:00,22.5,21.3,30.36,North,353,2.0,2.0,95,0.00,,CLR,0.00,VWS V14.01,2013-01-13 09:14:00,
2013-01-13 01:15:00,22.5,21.3,30.36,North,353,1.0,2.0,95,0.00,,CLR,0.00,VWS V14.01,2013-01-13 09:15:00,
2013-01-13 01:17:00,22.5,21.3,30.36,North,353,2.0,2.0,95,0.00,,CLR,0.00,VWS V14.01,2013-01-13 09:17:00,
2013-01-13 01:19:00,22.7,21.5,30.36,North,353,1.0,2.0,95,0.00,,CLR,0.00,VWS V14.01,2013-01-13 09:19:00,
2013-01-13 01:24:00,22.7,21.5,30.36,North,353,1.0,2.0,95,0.00,,CLR,0.00,VWS V14.01,2013-01-13 09:24:00,
2013-01-13 01:25:00,22.7,21.5,30.36,North,353,1.0,2.0,95,0.00,,CLR,0.00,VWS V14.01,2013-01-13 09:25:00,
2013-01-13 01:26:00,22.9,21.7,30.36,North,353,1.0,2.0,95,0.00,,CLR,0.00,VWS V14.01,2013-01-13 09:26:00,
2013-01-13 01:29:00,22.9,21.7,30.36,North,353,1.0,2.0,95,0.00,,CLR,0.00,VWS V14.01,2013-01-13 09:29:00,
2013-01-13 01:30:00,22.9,21.7,30.36,North,353,1.0,2.0,95,0.00,,CLR,0.00,VWS V14.01,2013-01-13 09:30:00,
2013-01-13 01:34:00,23.0,21.8,30.36,North,353,1.0,2.0,95,0.00,,CLR,0.00,VWS V14.01,2013-01-13 09:34:00,
2013-01-13 01:35:00,23.0,21.8,30.36,North,353,1.0,2.0,95,0.00,,CLR,0.00,VWS V14.01,2013-01-13 09:35:00,
2013-01-13 01:37:00,23.2,22.0,30.36,North,353,1.0,2.0,95,0.00,,CLR,0.00,VWS V14.01,2013-01-13 09:37:00,
2013-01-13 01:39:00,23.3,22.1,30.36,North,353,2.0,2.0,95,0.00,,CLR,0.00,VWS V14.01,2013-01-13 09:39:00,
2013-01-13 01:44:00,23.3,22.1,30.36,North,353,0.0,2.0,95,0.00,,CLR,0.00,VWS V14.01,2013-01-13 09:44:00,
2013-01-13 01:45:00,23.3,22.1,30.36,North,353,0.0,0.0,95,0.00,,CLR,0.00,VWS V14.01,2013-01-13 09:45:00,
2013-01-13 01:49:00,23.3,22.1,30.36,North,353,0.0,1.0,95,0.00,,CLR,0.00,VWS V14.01,2013-01-13 09:49:00,
2013-01-13 01:51:00,23.3,22.1,30.36,North,353,0.0,1.0,95,0.00,,CLR,0.00,VWS V14.01,2013-01-13 09:51:00,
2013-01-13 01:54:00,23.2,22.0,30.36,North,353,0.0,1.0,95,0.00,,CLR,0.00,VWS V14.01,2013-01-13 09:54:00,
2013-01-13 01:55:00,23.2,22.0,30.36,North,353,0.0,0.0,95,0.00,,CLR,0.00,VWS V14.01,2013-01-13 09:55:00,
2013-01-13 01:57:00,23.2,22.0,30.36,North,353,0.0,0.0,95,0.00,,CLR,0.00,VWS V14.01,2013-01-13 09:57:00,
2013-01-13 02:00:00,23.2,22.0,30.36,North,353,0.0,0.0,95,0.00,,CLR,0.00,VWS V14.01,2013-01-13 10:00:00,
2013-01-13 02:01:00,23.2,22.0,30.36,North,353,1.0,1.0,95,0.00,,SCT028,0.00,VWS V14.01,2013-01-13 10:01:00,
2013-01-13 02:02:00,23.2,22.0,30.36,North,353,1.0,1.0,95,0.00,,SCT028,0.00,VWS V14.01,2013-01-13 10:02:00,
2013-01-13 02:05:00,23.2,22.0,30.36,North,353,2.0,2.0,95,0.00,,SCT028,0.00,VWS V14.01,2013-01-13 10:05:00,
2013-01-13 02:07:00,23.3,22.1,30.36,North,353,2.0,2.0,95,0.00,,SCT028,0.00,VWS V14.01,2013-01-13 10:07:00,
2013-01-13 02:09:00,23.3,22.1,30.36,North,353,0.0,2.0,95,0.00,,SCT028,0.00,VWS V14.01,2013-01-13 10:09:00,
2013-01-13 02:12:00,23.3,22.1,30.36,North,353,0.0,1.0,95,0.00,,SCT028,0.00,VWS V14.01,2013-01-13 10:12:00,
2013-01-13 02:14:00,23.3,22.1,30.36,North,353,2.0,2.0,95,0.00,,SCT028,0.00,VWS V14.01,2013-01-13 10:14:00,
2013-01-13 02:16:00,23.3,22.1,30.36,North,353,2.0,2.0,95,0.00,,SCT028,0.00,VWS V14.01,2013-01-13 10:16:00,
2013-01-13 02:17:00,23.3,22.1,30.36,North,353,2.0,2.0,95,0.00,,SCT028,0.00,VWS V14.01,2013-01-13 10:17:00,
2013-01-13 02:19:00,23.3,22.1,30.36,North,353,2.0,2.0,95,0.00,,SCT028,0.00,VWS V14.01,2013-01-13 10:19:00,
2013-01-13 02:22:00,23.2,22.0,30.36,North,353,2.0,3.0,95,0.00,,SCT028,0.00,VWS V14.01,2013-01-13 10:22:00,
2013-01-13 02:23:00,23.2,22.0,30.36,North,353,2.0,3.0,95,0.00,,SCT028,0.00,VWS V14.01,2013-01-13 10:23:00,
2013-01-13 02:26:00,23.0,21.8,30.36,North,353,0.0,2.0,95,0.00,,SCT028,0.00,VWS V14.01,2013-01-13 10:26:00,
2013-01-13 02:28:00,22.9,21.7,30.36,North,353,0.0,2.0,95,0.00,,SCT028,0.00,VWS V14.01,2013-01-13 10:28:00,
2013-01-13 02:29:00,22.9,21.7,30.37,North,353,0.0,2.0,95,0.00,,SCT028,0.00,VWS V14.01,2013-01-13 10:29:00,
2013-01-13 02:34:00,22.9,21.7,30.37,North,353,0.0,0.0,95,0.00,,SCT028,0.00,VWS V14.01,2013-01-13 10:34:00,
2013-01-13 02:35:00,22.9,21.7,30.37,North,353,0.0,0.0,95,0.00,,SCT028,0.00,VWS V14.01,2013-01-13 10:35:00,
2013-01-13 02:39:00,23.0,21.8,30.37,North,353,0.0,0.0,95,0.00,,SCT028,0.00,VWS V14.01,2013-01-13 10:39:00,
2013-01-13 02:40:00,23.0,21.8,30.37,North,353,0.0,0.0,95,0.00,,SCT028,0.00,VWS V14.01,2013-01-13 10:40:00,
2013-01-13 02:44:00,23.0,21.8,30.36,North,353,0.0,0.0,95,0.00,,SCT028,0.00,VWS V14.01,2013-01-13 10:44:00,
2013-01-13 02:47:00,23.0,21.8,30.36,North,353,0.0,0.0,95,0.00,,SCT028,0.00,VWS V14.01,2013-01-13 10:47:00,
2013-01-13 02:48:00,23.0,21.8,30.36,North,353,0.0,0.0,95,0.00,,SCT028,0.00,VWS V14.01,2013-01-13 10:48:00,
2013-01-13 02:49:00,23.0,21.8,30.36,North,353,0.0,0.0,95,0.00,,SCT028,0.00,VWS V14.01,2013-01-13 10:49:00,
2013-01-13 02:51:00,23.0,21.8,30.36,North,353,0.0,0.0,95,0.00,,SCT028,0.00,VWS V14.01,2013-01-13 10:51:00,
2013-01-13 02:54:00,23.2,22.0,30.36,North,353,0.0,0.0,95,0.00,,SCT028,0.00,VWS V14.01,2013-01-13 10:54:00,
2013-01-13 02:55:00,23.2,22.0,30.36,North,353,0.0,0.0,95,0.00,,SCT028,0.00,VWS V14.01,2013-01-13 10:55:00,
2013-01-13 02:57:00,23.2,22.0,30.36,North,353,0.0,0.0,95,0.00,,SCT028,0.00,VWS V14.01,2013-01-13 10:57:00,
2013-01-13 02:59:00,23.0,21.8,30.37,North,353,0.0,0.0,95,0.00,,SCT028,0.00,VWS V14.01,2013-01-13 10:59:00,
2013-01-13 03:03:00,23.0,21.8,30.37,North,353,0.0,0.0,95,0.00,,CLR,0.00,VWS V14.01,2013-01-13 11:03:00,
2013-01-13 03:04:00,23.0,21.8,30.37,North,353,0.0,0.0,95,0.00,,CLR,0.00,VWS V14.01,2013-01-13 11:04:00,
2013-01-13 03:06:00,23.0,21.8,30.37,North,353,0.0,0.0,95,0.00,,CLR,0.00,VWS V14.01,2013-01-13 11:06:00,
2013-01-13 03:07:00,23.0,21.8,30.37,North,353,0.0,0.0,95,0.00,,CLR,0.00,VWS V14.01,2013-01-13 11:07:00,
2013-01-13 03:12:00,22.9,21.7,30.37,North,353,0.0,0.0,95,0.00,,CLR,0.00,VWS V14.01,2013-01-13 11:12:00,
2013-01-13 03:13:00,22.9,21.7,30.37,North,353,0.0,0.0,95,0.00,,CLR,0.00,VWS V14.01,2013-01-13 11:13:00,
2013-01-13 03:14:00,22.9,21.7,30.36,North,353,0.0,0.0,95,0.00,,CLR,0.00,VWS V14.01,2013-01-13 11:14:00,
2013-01-13 03:16:00,22.9,21.7,30.36,North,353,0.0,0.0,95,0.00,,CLR,0.00,VWS V14.01,2013-01-13 11:16:00,
2013-01-13 03:19:00,22.9,21.7,30.36,North,353,0.0,0.0,95,0.00,,CLR,0.00,VWS V14.01,2013-01-13 11:19:00,
2013-01-13 03:23:00,22.7,21.5,30.36,North,353,0.0,0.0,95,0.00,,CLR,0.00,VWS V14.01,2013-01-13 11:23:00,
2013-01-13 03:24:00,22.9,21.7,30.36,North,353,0.0,0.0,95,0.00,,CLR,0.00,VWS V14.01,2013-01-13 11:24:00,
2013-01-13 03:28:00,22.9,21.7,30.36,North,353,0.0,0.0,95,0.00,,CLR,0.00,VWS V14.01,2013-01-13 11:28:00,
2013-01-13 03:29:00,22.9,21.7,30.36,North,353,0.0,0.0,95,0.00,,CLR,0.00,VWS V14.01,2013-01-13 11:29:00,
2013-01-13 03:31:00,22.7,21.5,30.36,North,353,0.0,0.0,95,0.00,,CLR,0.00,VWS V14.01,2013-01-13 11:31:00,
2013-01-13 03:33:00,22.7,21.5,30.36,North,353,0.0,0.0,95,0.00,,CLR,0.00,VWS V14.01,2013-01-13 11:33:00,
2013-01-13 03:34:00,22.7,21.5,30.36,North,353,0.0,0.0,95,0.00,,CLR,0.00,VWS V14.01,2013-01-13 11:34:00,
2013-01-13 03:35:00,22.7,21.5,30.36,North,353,0.0,0.0,95,0.00,,CLR,0.00,VWS V14.01,2013-01-13 11:35:00,
2013-01-13 03:36:00,22.7,21.5,30.36,North,353,0.0,0.0,95,0.00,,CLR,0.00,VWS V14.01,2013-01-13 11:36:00,
2013-01-13 03:38:00,22.9,21.7,30.36,North,353,0.0,0.0,95,0.00,,CLR,0.00,VWS V14.01,2013-01-13 11:38:00,
2013-01-13 03:41:00,22.7,21.5,30.36,North,353,0.0,0.0,95,0.00,,CLR,0.00,VWS V14.01,2013-01-13 11:41:00,
2013-01-13 03:42:00,22.7,21.5,30.36,North,353,0.0,0.0,95,0.00,,CLR,0.00,VWS V14.01,2013-01-13 11:42:00,
2013-01-13 03:44:00,22.7,21.5,30.36,North,353,0.0,0.0,95,0.00,,CLR,0.00,VWS V14.01,2013-01-13 11:44:00,
2013-01-13 03:46:00,22.7,21.5,30.36,North,353,0.0,0.0,95,0.00,,CLR,0.00,VWS V14.01,2013-01-13 11:46:00,
2013-01-13 03:48:00,22.7,21.5,30.36,North,353,0.0,0.0,95,0.00,,CLR,0.00,VWS V14.01,2013-01-13 11:48:00,
2013-01-13 03:49:00,22.7,21.5,30.36,North,353,0.0,0.0,95,0.00,,CLR,0.00,VWS V14.01,2013-01-13 11:49:00,
2013-01-13 03:51:00,22.7,21.5,30.36,North,353,0.0,0.0,95,0.00,,CLR,0.00,VWS V14.01,2013-01-13 11:51:00,
2013-01-13 03:53:00,22.7,21.5,30.36,North,353,0.0,0.0,95,0.00,,CLR,0.00,VWS V14.01,2013-01-13 11:53:00,
2013-01-13 03:58:00,22.5,21.3,30.35,North,353,0.0,0.0,95,0.00,,CLR,0.00,VWS V14.01,2013-01-13 11:58:00,
2013-01-13 03:59:00,22.5,21.3,30.35,North,353,0.0,0.0,95,0.00,,CLR,0.00,VWS V14.01,2013-01-13 11:59:00,
2013-01-13 04:01:00,22.5,21.3,30.35,North,353,0.0,0.0,95,0.00,,BKN031,0.00,VWS V14.01,2013-01-13 12:01:00,
2013-01-13 04:03:00,22.5,21.0,30.35,North,353,0.0,0.0,94,0.00,,BKN031,0.00,VWS V14.01,2013-01-13 12:03:00,
2013-01-13 04:04:00,22.5,21.3,30.35,North,353,0.0,0.0,95,0.00,,BKN031,0.00,VWS V14.01,2013-01-13 12:04:00,
2013-01-13 04:08:00,22.4,20.9,30.35,North,353,0.0,0.0,94,0.00,,BKN031,0.00,VWS V14.01,2013-01-13 12:08:00,
2013-01-13 04:09:00,22.2,20.7,30.35,North,353,0.0,0.0,94,0.00,,BKN031,0.00,VWS V14.01,2013-01-13 12:09:00,
2013-01-13 04:12:00,22.2,20.7,30.35,North,353,0.0,0.0,94,0.00,,BKN031,0.00,VWS V14.01,2013-01-13 12:12:00,
2013-01-13 04:13:00,22.2,20.7,30.35,North,353,0.0,0.0,94,0.00,,BKN031,0.00,VWS V14.01,2013-01-13 12:13:00,
2013-01-13 04:16:00,22.2,20.7,30.35,North,353,0.0,0.0,94,0.00,,BKN031,0.00,VWS V14.01,2013-01-13 12:16:00,
2013-01-13 04:17:00,22.2,21.0,30.35,North,353,0.0,0.0,95,0.00,,BKN031,0.00,VWS V14.01,2013-01-13 12:17:00,
2013-01-13 04:18:00,22.2,20.7,30.35,North,353,0.0,0.0,94,0.00,,BKN031,0.00,VWS V14.01,2013-01-13 12:18:00,
2013-01-13 04:23:00,22.2,20.7,30.35,North,353,0.0,0.0,94,0.00,,BKN031,0.00,VWS V14.01,2013-01-13 12:23:00,
2013-01-13 04:24:00,22.2,21.0,30.35,North,353,0.0,0.0,95,0.00,,BKN031,0.00,VWS V14.01,2013-01-13 12:24:00,
2013-01-13 04:25:00,22.2,21.0,30.35,North,353,0.0,0.0,95,0.00,,BKN031,0.00,VWS V14.01,2013-01-13 12:25:00,
2013-01-13 04:26:00,22.2,21.0,30.35,North,353,0.0,0.0,95,0.00,,BKN031,0.00,VWS V14.01,2013-01-13 12:26:00,
2013-01-13 04:30:00,22.2,21.0,30.35,North,353,0.0,0.0,95,0.00,,BKN031,0.00,VWS V14.01,2013-01-13 12:30:00,
2013-01-13 04:31:00,22.2,21.0,30.35,North,353,0.0,0.0,95,0.00,,BKN031,0.00,VWS V14.01,2013-01-13 12:31:00,
2013-01-13 04:32:00,22.2,21.0,30.35,North,353,0.0,0.0,95,0.00,,BKN031,0.00,VWS V14.01,2013-01-13 12:32:00,
2013-01-13 04:34:00,22.2,21.0,30.35,North,353,0.0,0.0,95,0.00,,BKN031,0.00,VWS V14.01,2013-01-13 12:34:00,
2013-01-13 04:39:00,22.5,21.3,30.35,North,353,0.0,0.0,95,0.00,,BKN031,0.00,VWS V14.01,2013-01-13 12:39:00,
2013-01-13 04:43:00,22.5,21.3,30.35,North,353,0.0,0.0,95,0.00,,BKN031,0.00,VWS V14.01,2013-01-13 12:43:00,
2013-01-13 04:44:00,22.4,21.2,30.35,North,353,0.0,0.0,95,0.00,,BKN031,0.00,VWS V14.01,2013-01-13 12:44:00,
2013-01-13 04:46:00,22.4,21.2,30.35,North,353,0.0,0.0,95,0.00,,BKN031,0.00,VWS V14.01,2013-01-13 12:46:00,
2013-01-13 04:48:00,22.5,21.3,30.35,North,353,1.0,2.0,95,0.00,,BKN031,0.00,VWS V14.01,2013-01-13 12:48:00,
2013-01-13 04:51:00,22.4,21.2,30.35,North,353,1.0,2.0,95,0.00,,BKN031,0.00,VWS V14.01,2013-01-13 12:51:00,
2013-01-13 04:52:00,22.4,21.2,30.35,North,353,1.0,2.0,95,0.00,,BKN031,0.00,VWS V14.01,2013-01-13 12:52:00,
2013-01-13 04:54:00,22.2,20.7,30.35,North,353,1.0,2.0,94,0.00,,BKN031,0.00,VWS V14.01,2013-01-13 12:54:00,
2013-01-13 04:57:00,22.2,21.0,30.35,North,353,2.0,2.0,95,0.00,,BKN031,0.00,VWS V14.01,2013-01-13 12:57:00,
2013-01-13 04:59:00,22.2,21.0,30.35,North,353,1.0,2.0,95,0.00,,BKN031,0.00,VWS V14.01,2013-01-13 12:59:00,
2013-01-13 05:02:00,22.2,21.0,30.35,North,353,1.0,2.0,95,0.00,,CLR,0.00,VWS V14.01,2013-01-13 13:02:00,
2013-01-13 05:04:00,22.2,21.0,30.35,North,353,1.0,2.0,95,0.00,,CLR,0.00,VWS V14.01,2013-01-13 13:04:00,
2013-01-13 05:07:00,22.4,21.2,30.35,North,353,1.0,2.0,95,0.00,,CLR,0.00,VWS V14.01,2013-01-13 13:07:00,
2013-01-13 05:09:00,22.4,21.2,30.35,North,353,1.0,2.0,95,0.00,,CLR,0.00,VWS V14.01,2013-01-13 13:09:00,
2013-01-13 05:10:00,22.4,21.2,30.35,North,353,1.0,1.0,95,0.00,,CLR,0.00,VWS V14.01,2013-01-13 13:10:00,
2013-01-13 05:11:00,22.4,21.2,30.35,North,353,0.0,1.0,95,0.00,,CLR,0.00,VWS V14.01,2013-01-13 13:11:00,
2013-01-13 05:16:00,22.4,21.2,30.36,North,353,0.0,0.0,95,0.00,,CLR,0.00,VWS V14.01,2013-01-13 13:16:00,
2013-01-13 05:17:00,22.4,21.2,30.36,North,353,0.0,0.0,95,0.00,,CLR,0.00,VWS V14.01,2013-01-13 13:17:00,
2013-01-13 05:19:00,22.4,21.2,30.36,North,353,0.0,0.0,95,0.00,,CLR,0.00,VWS V14.01,2013-01-13 13:19:00,
2013-01-13 05:20:00,22.4,21.2,30.36,North,353,0.0,0.0,95,0.00,,CLR,0.00,VWS V14.01,2013-01-13 13:20:00,
2013-01-13 05:21:00,22.4,21.2,30.36,North,353,0.0,0.0,95,0.00,,CLR,0.00,VWS V14.01,2013-01-13 13:21:00,
2013-01-13 05:24:00,22.4,20.9,30.36,North,353,0.0,0.0,94,0.00,,CLR,0.00,VWS V14.01,2013-01-13 13:24:00,
2013-01-13 05:25:00,22.4,20.9,30.36,North,353,0.0,0.0,94,0.00,,CLR,0.00,VWS V14.01,2013-01-13 13:25:00,
2013-01-13 05:27:00,22.4,21.2,30.36,North,353,0.0,0.0,95,0.00,,CLR,0.00,VWS V14.01,2013-01-13 13:27:00,
2013-01-13 05:28:00,22.2,21.0,30.36,North,353,0.0,0.0,95,0.00,,CLR,0.00,VWS V14.01,2013-01-13 13:28:00,
2013-01-13 05:29:00,22.2,20.7,30.36,North,353,0.0,0.0,94,0.00,,CLR,0.00,VWS V14.01,2013-01-13 13:29:00,
2013-01-13 05:31:00,22.2,20.7,30.36,North,353,0.0,0.0,94,0.00,,CLR,0.00,VWS V14.01,2013-01-13 13:31:00,
2013-01-13 05:34:00,22.2,20.7,30.36,North,353,0.0,0.0,94,0.00,,CLR,0.00,VWS V14.01,2013-01-13 13:34:00,
2013-01-13 05:35:00,22.1,20.6,30.36,North,353,0.0,0.0,94,0.00,,CLR,0.00,VWS V14.01,2013-01-13 13:35:00,
2013-01-13 05:39:00,22.1,20.9,30.36,North,353,0.0,0.0,95,0.00,,CLR,0.00,VWS V14.01,2013-01-13 13:39:00,
2013-01-13 05:40:00,22.1,20.6,30.36,North,353,0.0,0.0,94,0.00,,CLR,0.00,VWS V14.01,2013-01-13 13:40:00,
2013-01-13 05:41:00,22.1,20.9,30.36,North,353,0.0,0.0,95,0.00,,CLR,0.00,VWS V14.01,2013-01-13 13:41:00,
2013-01-13 05:44:00,22.1,20.9,30.36,North,353,0.0,0.0,95,0.00,,CLR,0.00,VWS V14.01,2013-01-13 13:44:00,
2013-01-13 05:45:00,22.1,20.9,30.36,North,353,0.0,0.0,95,0.00,,CLR,0.00,VWS V14.01,2013-01-13 13:45:00,
2013-01-13 05:49:00,22.1,20.9,30.36,North,353,0.0,0.0,95,0.00,,CLR,0.00,VWS V14.01,2013-01-13 13:49:00,
2013-01-13 05:51:00,22.1,20.9,30.36,North,353,0.0,0.0,95,0.00,,CLR,0.00,VWS V14.01,2013-01-13 13:51:00,
2013-01-13 05:53:00,22.1,20.9,30.36,North,353,0.0,0.0,95,0.00,,CLR,0.00,VWS V14.01,2013-01-13 13:53:00,
2013-01-13 05:54:00,22.1,20.9,30.36,North,353,0.0,0.0,95,0.00,,CLR,0.00,VWS V14.01,2013-01-13 13:54:00,
2013-01-13 05:58:00,22.2,21.0,30.36,North,353,0.0,0.0,95,0.00,,CLR,0.00,VWS V14.01,2013-01-13 13:58:00,
2013-01-13 05:59:00,22.2,21.0,30.36,North,353,0.0,0.0,95,0.00,,CLR,0.00,VWS V14.01,2013-01-13 13:59:00,
2013-01-13 06:04:00,22.2,21.0,30.36,North,353,0.0,0.0,95,0.00,,CLR,0.00,VWS V14.01,2013-01-13 14:04:00,
2013-01-13 06:06:00,22.2,21.0,30.36,North,353,0.0,0.0,95,0.00,,CLR,0.00,VWS V14.01,2013-01-13 14:06:00,
2013-01-13 06:07:00,22.2,21.0,30.36,North,353,0.0,0.0,95,0.00,,CLR,0.00,VWS V14.01,2013-01-13 14:07:00,
2013-01-13 06:09:00,22.2,21.0,30.36,North,353,0.0,0.0,95,0.00,,CLR,0.00,VWS V14.01,2013-01-13 14:09:00,
2013-01-13 06:11:00,22.2,21.0,30.36,North,353,0.0,0.0,95,0.00,,CLR,0.00,VWS V14.01,2013-01-13 14:11:00,
2013-01-13 06:13:00,22.2,21.0,30.36,North,353,0.0,0.0,95,0.00,,CLR,0.00,VWS V14.01,2013-01-13 14:13:00,
2013-01-13 06:14:00,22.2,21.0,30.36,North,353,0.0,0.0,95,0.00,,CLR,0.00,VWS V14.01,2013-01-13 14:14:00,
2013-01-13 06:16:00,22.2,21.0,30.36,North,353,0.0,0.0,95,0.00,,CLR,0.00,VWS V14.01,2013-01-13 14:16:00,
2013-01-13 06:19:00,22.1,20.6,30.36,North,353,0.0,0.0,94,0.00,,CLR,0.00,VWS V14.01,2013-01-13 14:19:00,
2013-01-13 06:21:00,21.9,20.4,30.36,North,353,0.0,0.0,94,0.00,,CLR,0.00,VWS V14.01,2013-01-13 14:21:00,
2013-01-13 06:24:00,21.9,20.4,30.36,North,353,0.0,0.0,94,0.00,,CLR,0.00,VWS V14.01,2013-01-13 14:24:00,
2013-01-13 06:26:00,21.8,20.3,30.36,North,353,0.0,0.0,94,0.00,,CLR,0.00,VWS V14.01,2013-01-13 14:26:00,
2013-01-13 06:28:00,21.8,20.3,30.36,North,353,0.0,0.0,94,0.00,,CLR,0.00,VWS V14.01,2013-01-13 14:28:00,
2013-01-13 06:33:00,21.6,20.1,30.37,North,353,0.0,0.0,94,0.00,,CLR,0.00,VWS V14.01,2013-01-13 14:33:00,
2013-01-13 06:34:00,21.6,20.1,30.37,North,353,0.0,0.0,94,0.00,,CLR,0.00,VWS V14.01,2013-01-13 14:34:00,
2013-01-13 06:35:00,21.6,20.1,30.37,North,353,0.0,0.0,94,0.00,,CLR,0.00,VWS V14.01,2013-01-13 14:35:00,
2013-01-13 06:39:00,21.4,19.9,30.37,North,353,0.0,0.0,94,0.00,,CLR,0.00,VWS V14.01,2013-01-13 14:39:00,
2013-01-13 06:40:00,21.4,19.9,30.37,North,353,0.0,0.0,94,0.00,,CLR,0.00,VWS V14.01,2013-01-13 14:40:00,
2013-01-13 06:41:00,21.4,19.9,30.37,North,353,0.0,0.0,94,0.00,,CLR,0.00,VWS V14.01,2013-01-13 14:41:00,
2013-01-13 06:45:00,21.4,19.9,30.38,North,353,0.0,0.0,94,0.00,,CLR,0.00,VWS V14.01,2013-01-13 14:45:00,
2013-01-13 06:46:00,21.4,19.9,30.38,North,353,0.0,0.0,94,0.00,,CLR,0.00,VWS V14.01,2013-01-13 14:46:00,
2013-01-13 06:48:00,21.6,20.4,30.38,North,353,0.0,0.0,95,0.00,,CLR,0.00,VWS V14.01,2013-01-13 14:48:00,
2013-01-13 06:52:00,21.6,20.4,30.38,North,353,0.0,0.0,95,0.00,,CLR,0.00,VWS V14.01,2013-01-13 14:52:00,
2013-01-13 06:53:00,21.6,20.1,30.38,North,353,0.0,0.0,94,0.00,,CLR,0.00,VWS V14.01,2013-01-13 14:53:00,
2013-01-13 06:54:00,21.6,20.4,30.38,North,353,0.0,0.0,95,0.00,,CLR,0.00,VWS V14.01,2013-01-13 14:54:00,
2013-01-13 06:55:00,21.6,20.4,30.38,North,353,0.0,0.0,95,0.00,,CLR,0.00,VWS V14.01,2013-01-13 14:55:00,
2013-01-13 06:59:00,21.6,20.1,30.38,North,353,0.0,0.0,94,0.00,,CLR,0.00,VWS V14.01,2013-01-13 14:59:00,
2013-01-13 07:01:00,21.8,20.6,30.38,North,353,0.0,0.0,95,0.00,,CLR,0.00,VWS V14.01,2013-01-13 15:01:00,
2013-01-13 07:04:00,21.6,20.1,30.38,North,353,1.0,2.0,94,0.00,,CLR,0.00,VWS V14.01,2013-01-13 15:04:00,
2013-01-13 07:06:00,21.6,20.1,30.38,North,353,1.0,1.0,94,0.00,,CLR,0.00,VWS V14.01,2013-01-13 15:06:00,
2013-01-13 07:07:00,21.6,20.1,30.38,North,353,0.0,1.0,94,0.00,,CLR,0.00,VWS V14.01,2013-01-13 15:07:00,
2013-01-13 07:09:00,21.6,20.1,30.38,North,353,0.0,1.0,94,0.00,,CLR,0.00,VWS V14.01,2013-01-13 15:09:00,
2013-01-13 07:13:00,21.6,20.1,30.38,North,353,0.0,0.0,94,0.00,,CLR,0.00,VWS V14.01,2013-01-13 15:13:00,
2013-01-13 07:14:00,21.6,20.1,30.39,North,353,0.0,0.0,94,0.00,,CLR,0.00,VWS V14.01,2013-01-13 15:14:00,
2013-01-13 07:17:00,21.6,20.1,30.39,North,353,0.0,0.0,94,0.00,,CLR,0.00,VWS V14.01,2013-01-13 15:17:00,
2013-01-13 07:18:00,21.6,20.1,30.39,North,353,0.0,0.0,94,0.00,,CLR,0.00,VWS V14.01,2013-01-13 15:18:00,
2013-01-13 07:19:00,21.6,20.1,30.39,North,353,0.0,0.0,94,0.00,,CLR,0.00,VWS V14.01,2013-01-13 15:19:00,
2013-01-13 07:20:00,21.6,20.1,30.39,North,353,0.0,0.0,94,0.00,,CLR,0.00,VWS V14.01,2013-01-13 15:20:00,
2013-01-13 07:24:00,21.4,19.9,30.39,North,353,0.0,0.0,94,0.00,,CLR,0.00,VWS V14.01,2013-01-13 15:24:00,
2013-01-13 07:29:00,21.4,19.9,30.39,North,353,0.0,0.0,94,0.00,,CLR,0.00,VWS V14.01,2013-01-13 15:29:00,
2013-01-13 07:30:00,21.4,19.9,30.39,North,353,0.0,0.0,94,0.00,,CLR,0.00,VWS V14.01,2013-01-13 15:30:00,
2013-01-13 07:32:00,21.4,19.9,30.39,North,353,0.0,0.0,94,0.00,,CLR,0.00,VWS V14.01,2013-01-13 15:32:00,
2013-01-13 07:34:00,21.4,19.9,30.39,North,353,0.0,0.0,94,0.00,,CLR,0.00,VWS V14.01,2013-01-13 15:34:00,
2013-01-13 07:39:00,21.6,20.4,30.39,North,353,0.0,0.0,95,0.00,,CLR,0.00,VWS V14.01,2013-01-13 15:39:00,
2013-01-13 07:41:00,21.4,20.2,30.39,North,353,0.0,0.0,95,0.00,,CLR,0.00,VWS V14.01,2013-01-13 15:41:00,
2013-01-13 07:44:00,21.4,19.9,30.40,North,353,1.0,1.0,94,0.00,,CLR,0.00,VWS V14.01,2013-01-13 15:44:00,
2013-01-13 07:45:00,21.4,20.2,30.40,North,353,1.0,1.0,95,0.00,,CLR,0.00,VWS V14.01,2013-01-13 15:45:00,
2013-01-13 07:49:00,21.4,19.9,30.40,North,353,1.0,1.0,94,0.00,,CLR,0.00,VWS V14.01,2013-01-13 15:49:00,
2013-01-13 07:50:00,21.4,19.9,30.40,North,353,0.0,1.0,94,0.00,,CLR,0.00,VWS V14.01,2013-01-13 15:50:00,
2013-01-13 07:53:00,21.4,19.9,30.40,North,353,0.0,1.0,94,0.00,,CLR,0.00,VWS V14.01,2013-01-13 15:53:00,
2013-01-13 07:54:00,21.4,20.2,30.40,North,353,0.0,1.0,95,0.00,,CLR,0.00,VWS V14.01,2013-01-13 15:54:00,
2013-01-13 07:55:00,21.4,19.9,30.40,North,353,0.0,0.0,94,0.00,,CLR,0.00,VWS V14.01,2013-01-13 15:55:00,
2013-01-13 07:56:00,21.4,19.9,30.40,North,353,0.0,0.0,94,0.00,,CLR,0.00,VWS V14.01,2013-01-13 15:56:00,
2013-01-13 07:59:00,21.4,20.2,30.40,North,353,0.0,0.0,95,0.00,,CLR,0.00,VWS V14.01,2013-01-13 15:59:00,
2013-01-13 08:01:00,21.4,20.2,30.40,North,353,1.0,2.0,95,0.00,,CLR,0.00,VWS V14.01,2013-01-13 16:01:00,
2013-01-13 08:04:00,21.4,20.2,30.40,North,353,0.0,2.0,95,0.00,,CLR,0.00,VWS V14.01,2013-01-13 16:04:00,
2013-01-13 08:05:00,21.4,20.2,30.40,North,353,1.0,1.0,95,0.00,,CLR,0.00,VWS V14.01,2013-01-13 16:05:00,
2013-01-13 08:06:00,21.4,20.2,30.40,North,353,1.0,2.0,95,0.00,,CLR,0.00,VWS V14.01,2013-01-13 16:06:00,
2013-01-13 08:09:00,21.4,19.9,30.40,North,353,2.0,2.0,94,0.00,,CLR,0.00,VWS V14.01,2013-01-13 16:09:00,
2013-01-13 08:12:00,21.4,19.9,30.40,North,353,1.0,2.0,94,0.00,,CLR,0.00,VWS V14.01,2013-01-13 16:12:00,
2013-01-13 08:14:00,21.4,19.9,30.40,North,353,0.0,2.0,94,0.00,,CLR,0.00,VWS V14.01,2013-01-13 16:14:00,
2013-01-13 08:15:00,21.4,19.9,30.40,North,353,0.0,0.0,94,0.00,,CLR,0.00,VWS V14.01,2013-01-13 16:15:00,
2013-01-13 08:19:00,21.4,20.2,30.40,North,353,0.0,0.0,95,0.00,,CLR,0.00,VWS V14.01,2013-01-13 16:19:00,
2013-01-13 08:21:00,21.4,20.2,30.40,North,353,1.0,1.0,95,0.00,,CLR,0.00,VWS V14.01,2013-01-13 16:21:00,
2013-01-13 08:24:00,21.6,20.4,30.40,North,353,1.0,1.0,95,0.00,,CLR,0.00,VWS V14.01,2013-01-13 16:24:00,
2013-01-13 08:26:00,21.6,20.4,30.40,North,353,1.0,1.0,95,0.00,,CLR,0.00,VWS V14.01,2013-01-13 16:26:00,
2013-01-13 08:29:00,21.6,20.4,30.40,North,353,0.0,1.0,95,0.00,,CLR,0.00,VWS V14.01,2013-01-13 16:29:00,
2013-01-13 08:34:00,21.8,20.6,30.40,North,353,0.0,0.0,95,0.00,,CLR,0.00,VWS V14.01,2013-01-13 16:34:00,
2013-01-13 08:37:00,21.8,20.6,30.40,North,353,0.0,0.0,95,0.00,,CLR,0.00,VWS V14.01,2013-01-13 16:37:00,
2013-01-13 08:40:00,21.9,20.7,30.40,North,353,0.0,0.0,95,0.00,,CLR,0.00,VWS V14.01,2013-01-13 16:40:00,
2013-01-13 08:42:00,21.9,20.7,30.40,North,353,0.0,0.0,95,0.00,,CLR,0.00,VWS V14.01,2013-01-13 16:42:00,
2013-01-13 08:44:00,22.1,20.9,30.40,North,353,0.0,0.0,95,0.00,,CLR,0.00,VWS V14.01,2013-01-13 16:44:00,
2013-01-13 08:47:00,22.2,21.0,30.40,North,353,1.0,1.0,95,0.00,,CLR,0.00,VWS V14.01,2013-01-13 16:47:00,
2013-01-13 08:49:00,22.2,21.0,30.40,North,353,1.0,1.0,95,0.00,,CLR,0.00,VWS V14.01,2013-01-13 16:49:00,
2013-01-13 08:52:00,22.4,21.2,30.40,North,353,1.0,1.0,95,0.00,,CLR,0.00,VWS V14.01,2013-01-13 16:52:00,
2013-01-13 08:53:00,22.4,21.2,30.40,North,353,1.0,2.0,95,0.00,,CLR,0.00,VWS V14.01,2013-01-13 16:53:00,
2013-01-13 08:54:00,22.4,21.2,30.40,North,353,0.0,2.0,95,0.00,,CLR,0.00,VWS V14.01,2013-01-13 16:54:00,
2013-01-13 08:56:00,22.5,21.3,30.40,North,353,1.0,1.0,95,0.00,,CLR,0.00,VWS V14.01,2013-01-13 16:56:00,
2013-01-13 08:58:00,22.5,21.3,30.40,North,353,1.0,2.0,95,0.00,,CLR,0.00,VWS V14.01,2013-01-13 16:58:00,
2013-01-13 08:59:00,22.7,21.5,30.40,North,353,0.0,2.0,95,0.00,,CLR,0.00,VWS V14.01,2013-01-13 16:59:00,
2013-01-13 09:01:00,22.9,21.7,30.40,North,353,1.0,1.0,95,0.00,,CLR,0.00,VWS V14.01,2013-01-13 17:01:00,
2013-01-13 09:04:00,23.0,21.8,30.40,North,353,0.0,1.0,95,0.00,,CLR,0.00,VWS V14.01,2013-01-13 17:04:00,
2013-01-13 09:05:00,23.0,21.8,30.40,North,353,0.0,0.0,95,0.00,,CLR,0.00,VWS V14.01,2013-01-13 17:05:00,
2013-01-13 09:06:00,23.2,22.0,30.40,North,353,0.0,0.0,95,0.00,,CLR,0.00,VWS V14.01,2013-01-13 17:06:00,
2013-01-13 09:07:00,23.2,22.0,30.40,North,353,0.0,0.0,95,0.00,,CLR,0.00,VWS V14.01,2013-01-13 17:07:00,
2013-01-13 09:09:00,23.5,22.3,30.40,North,353,0.0,1.0,95,0.00,,CLR,0.00,VWS V14.01,2013-01-13 17:09:00,
2013-01-13 09:14:00,23.8,22.6,30.40,North,353,0.0,2.0,95,0.00,,CLR,0.00,VWS V14.01,2013-01-13 17:14:00,
2013-01-13 09:15:00,23.8,22.6,30.40,North,353,0.0,0.0,95,0.00,,CLR,0.00,VWS V14.01,2013-01-13 17:15:00,
2013-01-13 09:16:00,23.9,22.7,30.40,North,353,0.0,0.0,95,0.00,,CLR,0.00,VWS V14.01,2013-01-13 17:16:00,
2013-01-13 09:21:00,24.2,23.0,30.40,North,353,0.0,2.0,95,0.00,,CLR,0.00,VWS V14.01,2013-01-13 17:21:00,
2013-01-13 09:22:00,24.4,23.2,30.40,North,353,1.0,2.0,95,0.00,,CLR,0.00,VWS V14.01,2013-01-13 17:22:00,
2013-01-13 09:24:00,24.5,23.3,30.40,North,353,0.0,2.0,95,0.00,,CLR,0.00,VWS V14.01,2013-01-13 17:24:00,
2013-01-13 09:27:00,24.7,23.5,30.40,North,353,0.0,0.0,95,0.00,,CLR,0.00,VWS V14.01,2013-01-13 17:27:00,
2013-01-13 09:29:00,24.8,23.6,30.40,North,353,0.0,0.0,95,0.00,,CLR,0.00,VWS V14.01,2013-01-13 17:29:00,
2013-01-13 09:34:00,25.1,23.9,30.40,North,353,1.0,2.0,95,0.00,,CLR,0.00,VWS V14.01,2013-01-13 17:34:00,
2013-01-13 09:35:00,25.1,23.9,30.40,North,353,2.0,2.0,95,0.00,,CLR,0.00,VWS V14.01,2013-01-13 17:35:00,
2013-01-13 09:37:00,25.3,24.1,30.40,North,353,1.0,2.0,95,0.00,,CLR,0.00,VWS V14.01,2013-01-13 17:37:00,
2013-01-13 09:41:00,25.4,24.2,30.40,North,353,0.0,1.0,95,0.00,,CLR,0.00,VWS V14.01,2013-01-13 17:41:00,
2013-01-13 09:42:00,25.4,24.2,30.40,North,353,1.0,2.0,95,0.00,,CLR,0.00,VWS V14.01,2013-01-13 17:42:00,
2013-01-13 09:44:00,25.6,24.4,30.40,North,353,2.0,2.0,95,0.00,,CLR,0.00,VWS V14.01,2013-01-13 17:44:00,
2013-01-13 09:48:00,25.7,24.5,30.40,ENE,65,2.0,3.0,95,0.00,,CLR,0.00,VWS V14.01,2013-01-13 17:48:00,
2013-01-13 09:49:00,25.7,24.5,30.40,ENE,65,2.0,3.0,95,0.00,,CLR,0.00,VWS V14.01,2013-01-13 17:49:00,
2013-01-13 09:50:00,25.7,24.5,30.40,ENE,65,1.0,2.0,95,0.00,,CLR,0.00,VWS V14.01,2013-01-13 17:50:00,
2013-01-13 09:54:00,25.8,24.6,30.40,ENE,65,1.0,2.0,95,0.00,,CLR,0.00,VWS V14.01,2013-01-13 17:54:00,
2013-01-13 09:55:00,25.8,24.6,30.40,ENE,65,1.0,2.0,95,0.00,,CLR,0.00,VWS V14.01,2013-01-13 17:55:00,
2013-01-13 09:56:00,26.0,24.8,30.40,ENE,65,1.0,2.0,95,0.00,,CLR,0.00,VWS V14.01,2013-01-13 17:56:00,
2013-01-13 09:59:00,26.1,24.6,30.40,ENE,65,1.0,2.0,94,0.00,,CLR,0.00,VWS V14.01,2013-01-13 17:59:00,
2013-01-13 10:01:00,26.3,24.8,30.40,ENE,65,1.0,2.0,94,0.00,,CLR,0.00,VWS V14.01,2013-01-13 18:01:00,
2013-01-13 10:03:00,26.4,24.9,30.40,ENE,65,1.0,2.0,94,0.00,,CLR,0.00,VWS V14.01,2013-01-13 18:03:00,
2013-01-13 10:04:00,26.4,24.9,30.40,ENE,65,0.0,2.0,94,0.00,,CLR,0.00,VWS V14.01,2013-01-13 18:04:00,
2013-01-13 10:05:00,26.4,24.9,30.40,ENE,65,0.0,0.0,94,0.00,,CLR,0.00,VWS V14.01,2013-01-13 18:05:00,
2013-01-13 10:08:00,26.7,25.2,30.40,ENE,65,0.0,0.0,94,0.00,,CLR,0.00,VWS V14.01,2013-01-13 18:08:00,
2013-01-13 10:09:00,26.9,25.4,30.40,ENE,65,0.0,0.0,94,0.00,,CLR,0.00,VWS V14.01,2013-01-13 18:09:00,
2013-01-13 10:12:00,27.2,25.7,30.40,ENE,65,0.0,0.0,94,0.00,,CLR,0.00,VWS V14.01,2013-01-13 18:12:00,
2013-01-13 10:14:00,27.3,25.8,30.40,ENE,65,0.0,0.0,94,0.00,,CLR,0.00,VWS V14.01,2013-01-13 18:14:00,
2013-01-13 10:17:00,27.5,26.0,30.40,ENE,65,0.0,0.0,94,0.00,,CLR,0.00,VWS V14.01,2013-01-13 18:17:00,
2013-01-13 10:19:00,27.5,26.0,30.40,ENE,65,0.0,0.0,94,0.00,,CLR,0.00,VWS V14.01,2013-01-13 18:19:00,
2013-01-13 10:20:00,27.6,25.8,30.40,ENE,65,0.0,0.0,93,0.00,,CLR,0.00,VWS V14.01,2013-01-13 18:20:00,
2013-01-13 10:24:00,27.8,26.0,30.40,ENE,65,0.0,0.0,93,0.00,,CLR,0.00,VWS V14.01,2013-01-13 18:24:00,
2013-01-13 10:26:00,27.9,26.1,30.40,ENE,65,0.0,0.0,93,0.00,,CLR,0.00,VWS V14.01,2013-01-13 18:26:00,
2013-01-13 10:28:00,28.1,26.3,30.40,ENE,65,0.0,0.0,93,0.00,,CLR,0.00,VWS V14.01,2013-01-13 18:28:00,
2013-01-13 10:30:00,28.2,26.2,30.41,ENE,65,0.0,0.0,92,0.00,,CLR,0.00,VWS V14.01,2013-01-13 18:30:00,
2013-01-13 10:31:00,28.2,26.2,30.41,ENE,65,0.0,0.0,92,0.00,,CLR,0.00,VWS V14.01,2013-01-13 18:31:00,
2013-01-13 10:34:00,28.5,26.5,30.41,ENE,65,0.0,0.0,92,0.00,,CLR,0.00,VWS V14.01,2013-01-13 18:34:00,
2013-01-13 10:36:00,28.5,26.5,30.41,ENE,65,0.0,0.0,92,0.00,,CLR,0.00,VWS V14.01,2013-01-13 18:36:00,
2013-01-13 10:37:00,28.5,26.2,30.41,ENE,65,0.0,0.0,91,0.00,,CLR,0.00,VWS V14.01,2013-01-13 18:37:00,
2013-01-13 10:41:00,28.7,26.1,30.41,ENE,65,1.0,2.0,90,0.00,,CLR,0.00,VWS V14.01,2013-01-13 18:41:00,
2013-01-13 10:43:00,28.7,26.1,30.41,ENE,65,0.0,2.0,90,0.00,,CLR,0.00,VWS V14.01,2013-01-13 18:43:00,
2013-01-13 10:44:00,28.7,25.9,30.41,ENE,65,1.0,2.0,89,0.00,,CLR,0.00,VWS V14.01,2013-01-13 18:44:00,
2013-01-13 10:47:00,28.7,25.6,30.41,ENE,65,0.0,2.0,88,0.00,,CLR,0.00,VWS V14.01,2013-01-13 18:47:00,
2013-01-13 10:49:00,28.8,25.4,30.41,ENE,65,0.0,3.0,87,0.00,,CLR,0.00,VWS V14.01,2013-01-13 18:49:00,
2013-01-13 10:50:00,29.0,25.6,30.41,ENE,65,0.0,0.0,87,0.00,,CLR,0.00,VWS V14.01,2013-01-13 18:50:00,
2013-01-13 10:52:00,29.3,25.9,30.41,ENE,65,0.0,1.0,87,0.00,,CLR,0.00,VWS V14.01,2013-01-13 18:52:00,
2013-01-13 10:53:00,29.3,25.9,30.41,ENE,65,1.0,1.0,87,0.00,,CLR,0.00,VWS V14.01,2013-01-13 18:53:00,
2013-01-13 10:55:00,29.4,25.5,30.41,ENE,65,0.0,0.0,85,0.00,,CLR,0.00,VWS V14.01,2013-01-13 18:55:00,
2013-01-13 10:57:00,29.5,25.6,30.41,ENE,65,0.0,0.0,85,0.00,,CLR,0.00,VWS V14.01,2013-01-13 18:57:00,
2013-01-13 10:58:00,29.7,25.8,30.41,ENE,65,1.0,2.0,85,0.00,,CLR,0.00,VWS V14.01,2013-01-13 18:58:00,
2013-01-13 10:59:00,29.7,25.8,30.40,ENE,65,1.0,3.0,85,0.00,,CLR,0.00,VWS V14.01,2013-01-13 18:59:00,
2013-01-13 11:03:00,30.0,25.8,30.40,ENE,65,0.0,2.0,84,0.00,,CLR,0.00,VWS V14.01,2013-01-13 19:03:00,
2013-01-13 11:04:00,30.1,25.6,30.40,ENE,65,0.0,2.0,83,0.00,,CLR,0.00,VWS V14.01,2013-01-13 19:04:00,
2013-01-13 11:08:00,30.3,25.5,30.40,SSW,209,1.0,3.0,82,0.00,,CLR,0.00,VWS V14.01,2013-01-13 19:08:00,
2013-01-13 11:09:00,30.3,25.5,30.40,SSW,209,1.0,3.0,82,0.00,,CLR,0.00,VWS V14.01,2013-01-13 19:09:00,
2013-01-13 11:14:00,31.0,26.2,30.40,SSW,209,0.0,1.0,82,0.00,,CLR,0.00,VWS V14.01,2013-01-13 19:14:00,
2013-01-13 11:16:00,31.2,26.1,30.40,SSW,209,0.0,2.0,81,0.00,,CLR,0.00,VWS V14.01,2013-01-13 19:16:00,
2013-01-13 11:19:00,31.5,26.4,30.40,SSW,209,0.0,2.0,81,0.00,,CLR,0.00,VWS V14.01,2013-01-13 19:19:00,
2013-01-13 11:20:00,31.6,26.5,30.40,SSW,209,0.0,0.0,81,0.00,,CLR,0.00,VWS V14.01,2013-01-13 19:20:00,
2013-01-13 11:23:00,31.8,26.4,30.40,SSW,209,0.0,0.0,80,0.00,,CLR,0.00,VWS V14.01,2013-01-13 19:23:00,
2013-01-13 11:24:00,31.8,26.0,30.40,SSW,209,0.0,1.0,79,0.00,,CLR,0.00,VWS V14.01,2013-01-13 19:24:00,
2013-01-13 11:25:00,31.8,26.0,30.40,SSW,209,0.0,0.0,79,0.00,,CLR,0.00,VWS V14.01,2013-01-13 19:25:00,
2013-01-13 11:28:00,31.9,26.1,30.40,SSW,209,2.0,2.0,79,0.00,,CLR,0.00,VWS V14.01,2013-01-13 19:28:00,
2013-01-13 11:29:00,31.9,26.1,30.39,SSW,209,1.0,2.0,79,0.00,,CLR,0.00,VWS V14.01,2013-01-13 19:29:00,
2013-01-13 11:30:00,31.9,26.1,30.39,SSW,209,0.0,2.0,79,0.00,,CLR,0.00,VWS V14.01,2013-01-13 19:30:00,
2013-01-13 11:34:00,32.1,26.0,30.39,SSW,209,1.0,2.0,78,0.00,,CLR,0.00,VWS V14.01,2013-01-13 19:34:00,
2013-01-13 11:36:00,32.1,26.0,30.39,SSW,209,0.0,1.0,78,0.00,,CLR,0.00,VWS V14.01,2013-01-13 19:36:00,
2013-01-13 11:38:00,32.1,25.7,30.39,SSW,209,2.0,2.0,77,0.00,,CLR,0.00,VWS V14.01,2013-01-13 19:38:00,
2013-01-13 11:39:00,32.1,25.4,30.39,ESE,121,2.0,3.0,76,0.00,,CLR,0.00,VWS V14.01,2013-01-13 19:39:00,
2013-01-13 11:40:00,32.1,25.4,30.39,ESE,121,0.0,2.0,76,0.00,,CLR,0.00,VWS V14.01,2013-01-13 19:40:00,
2013-01-13 11:45:00,31.9,24.6,30.38,ENE,61,0.0,1.0,74,0.00,,CLR,0.00,VWS V14.01,2013-01-13 19:45:00,
2013-01-13 11:47:00,32.1,24.8,30.38,ENE,61,0.0,1.0,74,0.00,,CLR,0.00,VWS V14.01,2013-01-13 19:47:00,
2013-01-13 11:48:00,32.1,24.8,30.38,ENE,61,0.0,1.0,74,0.00,,CLR,0.00,VWS V14.01,2013-01-13 19:48:00,
2013-01-13 11:49:00,32.2,24.9,30.38,ENE,61,0.0,1.0,74,0.00,,CLR,0.00,VWS V14.01,2013-01-13 19:49:00,
2013-01-13 11:52:00,32.4,25.4,30.38,ENE,61,0.0,2.0,75,0.00,,CLR,0.00,VWS V14.01,2013-01-13 19:52:00,
2013-01-13 11:53:00,32.4,25.4,30.38,ENE,61,0.0,2.0,75,0.00,,CLR,0.00,VWS V14.01,2013-01-13 19:53:00,
2013-01-13 11:55:00,32.4,25.4,30.38,ENE,61,0.0,0.0,75,0.00,,CLR,0.00,VWS V14.01,2013-01-13 19:55:00,
2013-01-13 11:57:00,32.5,25.5,30.38,ENE,61,1.0,1.0,75,0.00,,CLR,0.00,VWS V14.01,2013-01-13 19:57:00,
2013-01-13 11:58:00,32.5,25.5,30.38,ENE,61,1.0,3.0,75,0.00,,CLR,0.00,VWS V14.01,2013-01-13 19:58:00,
2013-01-13 11:59:00,32.7,25.7,30.38,ENE,61,0.0,3.0,75,0.00,,CLR,0.00,VWS V14.01,2013-01-13 19:59:00,
2013-01-13 12:00:00,32.5,25.1,30.38,ENE,61,0.0,1.0,74,0.00,,CLR,0.00,VWS V14.01,2013-01-13 20:00:00,
2013-01-13 12:04:00,32.7,25.7,30.38,ENE,61,0.0,1.0,75,0.00,,CLR,0.00,VWS V14.01,2013-01-13 20:04:00,
2013-01-13 12:05:00,32.8,25.8,30.38,ENE,61,1.0,2.0,75,0.00,,CLR,0.00,VWS V14.01,2013-01-13 20:05:00,
2013-01-13 12:08:00,32.8,25.4,30.38,West,280,0.0,3.0,74,0.00,,CLR,0.00,VWS V14.01,2013-01-13 20:08:00,
2013-01-13 12:09:00,32.8,25.4,30.38,West,280,0.0,0.0,74,0.00,,CLR,0.00,VWS V14.01,2013-01-13 20:09:00,
2013-01-13 12:13:00,32.9,25.5,30.38,West,260,2.0,4.0,74,0.00,,CLR,0.00,VWS V14.01,2013-01-13 20:13:00,
2013-01-13 12:14:00,32.9,25.5,30.38,West,260,1.0,4.0,74,0.00,,CLR,0.00,VWS V14.01,2013-01-13 20:14:00,
2013-01-13 12:15:00,32.9,25.5,30.38,West,260,1.0,2.0,74,0.00,,CLR,0.00,VWS V14.01,2013-01-13 20:15:00,
2013-01-13 12:19:00,32.8,25.1,30.38,West,260,3.0,3.0,73,0.00,,CLR,0.00,VWS V14.01,2013-01-13 20:19:00,
2013-01-13 12:20:00,32.8,25.1,30.38,West,260,1.0,3.0,73,0.00,,CLR,0.00,VWS V14.01,2013-01-13 20:20:00,
2013-01-13 12:21:00,32.8,25.1,30.38,West,260,0.0,3.0,73,0.00,,CLR,0.00,VWS V14.01,2013-01-13 20:21:00,
2013-01-13 12:24:00,32.9,24.9,30.38,West,260,0.0,0.0,72,0.00,,CLR,0.00,VWS V14.01,2013-01-13 20:24:00,
2013-01-13 12:29:00,33.1,25.1,30.38,NW,306,2.0,2.0,72,0.00,,CLR,0.00,VWS V14.01,2013-01-13 20:29:00,
2013-01-13 12:30:00,33.1,25.1,30.38,NW,306,2.0,2.0,72,0.00,,CLR,0.00,VWS V14.01,2013-01-13 20:30:00,
2013-01-13 12:31:00,33.1,24.7,30.38,NW,306,2.0,3.0,71,0.00,,CLR,0.00,VWS V14.01,2013-01-13 20:31:00,
2013-01-13 12:32:00,33.1,24.7,30.38,NW,306,1.0,3.0,71,0.00,,CLR,0.00,VWS V14.01,2013-01-13 20:32:00,
2013-01-13 12:36:00,33.1,24.7,30.38,NW,306,1.0,2.0,71,0.00,,CLR,0.00,VWS V14.01,2013-01-13 20:36:00,
2013-01-13 12:38:00,33.2,24.8,30.38,NW,306,2.0,2.0,71,0.00,,CLR,0.00,VWS V14.01,2013-01-13 20:38:00,
2013-01-13 12:39:00,33.2,24.8,30.38,NW,305,1.0,2.0,71,0.00,,CLR,0.00,VWS V14.01,2013-01-13 20:39:00,
2013-01-13 12:42:00,33.4,25.0,30.38,WSW,244,3.0,3.0,71,0.00,,CLR,0.00,VWS V14.01,2013-01-13 20:42:00,
2013-01-13 12:43:00,33.4,25.0,30.38,WSW,244,4.0,4.0,71,0.00,,CLR,0.00,VWS V14.01,2013-01-13 20:43:00,
2013-01-13 12:44:00,33.4,24.7,30.38,SW,219,3.0,4.0,70,0.00,,CLR,0.00,VWS V14.01,2013-01-13 20:44:00,
2013-01-13 12:47:00,33.4,24.3,30.38,SW,227,3.0,4.0,69,0.00,,CLR,0.00,VWS V14.01,2013-01-13 20:47:00,
2013-01-13 12:48:00,33.2,24.1,30.38,SW,227,4.0,4.0,69,0.00,,CLR,0.00,VWS V14.01,2013-01-13 20:48:00,
2013-01-13 12:49:00,33.2,24.1,30.38,SW,229,5.0,5.0,69,0.00,,CLR,0.00,VWS V14.01,2013-01-13 20:49:00,
2013-01-13 12:54:00,33.4,24.3,30.38,NW,306,0.0,5.0,69,0.00,,CLR,0.00,VWS V14.01,2013-01-13 20:54:00,
2013-01-13 12:56:00,33.4,24.7,30.38,West,267,1.0,6.0,70,0.00,,CLR,0.00,VWS V14.01,2013-01-13 20:56:00,
2013-01-13 12:57:00,33.4,25.0,30.38,West,261,2.0,6.0,71,0.00,,CLR,0.00,VWS V14.01,2013-01-13 20:57:00,
2013-01-13 12:59:00,33.4,24.7,30.38,WSW,258,1.0,6.0,70,0.00,,CLR,0.00,VWS V14.01,2013-01-13 20:59:00,
2013-01-13 13:00:00,33.4,24.7,30.38,WSW,256,3.0,3.0,70,0.00,,CLR,0.00,VWS V14.01,2013-01-13 21:00:00,
2013-01-13 13:02:00,33.4,24.7,30.38,WSW,256,1.0,3.0,70,0.00,,CLR,0.00,VWS V14.01,2013-01-13 21:02:00,
2013-01-13 13:04:00,33.2,24.5,30.38,WSW,256,1.0,3.0,70,0.00,,CLR,0.00,VWS V14.01,2013-01-13 21:04:00,
2013-01-13 13:09:00,33.2,24.8,30.38,West,261,0.0,3.0,71,0.00,,CLR,0.00,VWS V14.01,2013-01-13 21:09:00,
2013-01-13 13:10:00,33.4,25.0,30.38,SW,220,3.0,3.0,71,0.00,,CLR,0.00,VWS V14.01,2013-01-13 21:10:00,
2013-01-13 13:12:00,33.4,25.0,30.38,SW,220,0.0,3.0,71,0.00,,CLR,0.00,VWS V14.01,2013-01-13 21:12:00,
2013-01-13 13:14:00,33.4,25.0,30.37,SW,222,0.0,3.0,71,0.00,,CLR,0.00,VWS V14.01,2013-01-13 21:14:00,
2013-01-13 13:15:00,33.4,25.0,30.37,SW,222,0.0,0.0,71,0.00,,CLR,0.00,VWS V14.01,2013-01-13 21:15:00,
2013-01-13 13:16:00,33.4,25.0,30.37,SW,222,0.0,0.0,71,0.00,,CLR,0.00,VWS V14.01,2013-01-13 21:16:00,
2013-01-13 13:20:00,33.5,25.1,30.37,SW,222,0.0,1.0,71,0.00,,CLR,0.00,VWS V14.01,2013-01-13 21:20:00,
2013-01-13 13:21:00,33.5,25.1,30.37,SW,222,0.0,1.0,71,0.00,,CLR,0.00,VWS V14.01,2013-01-13 21:21:00,
2013-01-13 13:22:00,33.7,25.3,30.37,SW,222,1.0,3.0,71,0.00,,CLR,0.00,VWS V14.01,2013-01-13 21:22:00,
2013-01-13 13:24:00,33.7,25.3,30.37,WSW,239,1.0,3.0,71,0.00,,CLR,0.00,VWS V14.01,2013-01-13 21:24:00,
2013-01-13 13:27:00,33.8,25.4,30.37,WSW,240,0.0,3.0,71,0.00,,CLR,0.00,VWS V14.01,2013-01-13 21:27:00,
2013-01-13 13:29:00,33.8,25.4,30.37,WNW,285,2.0,5.0,71,0.00,,CLR,0.00,VWS V14.01,2013-01-13 21:29:00,
2013-01-13 13:30:00,33.8,25.4,30.37,WNW,285,2.0,2.0,71,0.00,,CLR,0.00,VWS V14.01,2013-01-13 21:30:00,
2013-01-13 13:33:00,34.0,25.6,30.37,WNW,285,3.0,4.0,71,0.00,,CLR,0.00,VWS V14.01,2013-01-13 21:33:00,
2013-01-13 13:35:00,33.8,25.1,30.37,WNW,285,2.0,2.0,70,0.00,,CLR,0.00,VWS V14.01,2013-01-13 21:35:00,
2013-01-13 13:36:00,33.8,25.1,30.37,WNW,292,2.0,5.0,70,0.00,,CLR,0.00,VWS V14.01,2013-01-13 21:36:00,
2013-01-13 13:39:00,33.8,25.4,30.37,WNW,294,1.0,5.0,71,0.00,,CLR,0.00,VWS V14.01,2013-01-13 21:39:00,
2013-01-13 13:41:00,34.0,25.6,30.37,WNW,294,1.0,1.0,71,0.00,,CLR,0.00,VWS V14.01,2013-01-13 21:41:00,
2013-01-13 13:42:00,34.0,25.6,30.37,WNW,294,2.0,2.0,71,0.00,,CLR,0.00,VWS V14.01,2013-01-13 21:42:00,
2013-01-13 13:43:00,34.0,25.6,30.37,WNW,294,3.0,3.0,71,0.00,,CLR,0.00,VWS V14.01,2013-01-13 21:43:00,
2013-01-13 13:45:00,34.0,25.6,30.37,West,270,2.0,3.0,71,0.00,,CLR,0.00,VWS V14.01,2013-01-13 21:45:00,
2013-01-13 13:47:00,34.0,25.6,30.37,West,268,3.0,3.0,71,0.00,,CLR,0.00,VWS V14.01,2013-01-13 21:47:00,
2013-01-13 13:49:00,34.0,25.3,30.37,West,268,0.0,3.0,70,0.00,,CLR,0.00,VWS V14.01,2013-01-13 21:49:00,
2013-01-13 13:51:00,34.0,25.6,30.37,West,268,2.0,3.0,71,0.00,,CLR,0.00,VWS V14.01,2013-01-13 21:51:00,
2013-01-13 13:53:00,34.0,25.6,30.37,West,268,2.0,3.0,71,0.00,,CLR,0.00,VWS V14.01,2013-01-13 21:53:00,
2013-01-13 13:55:00,33.8,25.4,30.37,West,268,2.0,2.0,71,0.00,,CLR,0.00,VWS V14.01,2013-01-13 21:55:00,
2013-01-13 13:57:00,33.8,25.1,30.37,West,268,0.0,2.0,70,0.00,,CLR,0.00,VWS V14.01,2013-01-13 21:57:00,
2013-01-13 13:58:00,33.8,25.1,30.37,West,268,0.0,2.0,70,0.00,,CLR,0.00,VWS V14.01,2013-01-13 21:58:00,
2013-01-13 14:00:00,33.8,25.4,30.38,West,268,0.0,0.0,71,0.00,,CLR,0.00,VWS V14.01,2013-01-13 22:00:00,
2013-01-13 14:03:00,34.0,25.9,30.38,West,268,2.0,2.0,72,0.00,,CLR,0.00,VWS V14.01,2013-01-13 22:03:00,
2013-01-13 14:04:00,34.0,25.9,30.38,West,271,3.0,5.0,72,0.00,,CLR,0.00,VWS V14.01,2013-01-13 22:04:00,
2013-01-13 14:06:00,33.8,25.4,30.38,West,271,1.0,4.0,71,0.00,,CLR,0.00,VWS V14.01,2013-01-13 22:06:00,
2013-01-13 14:09:00,33.8,25.4,30.38,West,271,0.0,4.0,71,0.00,,CLR,0.00,VWS V14.01,2013-01-13 22:09:00,
2013-01-13 14:10:00,33.8,25.4,30.38,West,268,0.0,1.0,71,0.00,,CLR,0.00,VWS V14.01,2013-01-13 22:10:00,
2013-01-13 14:11:00,33.8,25.4,30.38,West,268,0.0,1.0,71,0.00,,CLR,0.00,VWS V14.01,2013-01-13 22:11:00,
2013-01-13 14:12:00,33.8,25.4,30.38,West,267,3.0,4.0,71,0.00,,CLR,0.00,VWS V14.01,2013-01-13 22:12:00,
2013-01-13 14:16:00,33.7,25.0,30.38,West,267,0.0,2.0,70,0.00,,CLR,0.00,VWS V14.01,2013-01-13 22:16:00,
2013-01-13 14:17:00,33.7,25.0,30.38,West,267,1.0,2.0,70,0.00,,CLR,0.00,VWS V14.01,2013-01-13 22:17:00,
2013-01-13 14:19:00,33.7,25.3,30.38,West,267,1.0,3.0,71,0.00,,CLR,0.00,VWS V14.01,2013-01-13 22:19:00,
2013-01-13 14:21:00,33.7,25.0,30.38,West,270,2.0,4.0,70,0.00,,CLR,0.00,VWS V14.01,2013-01-13 22:21:00,
2013-01-13 14:22:00,33.7,25.3,30.38,West,270,1.0,4.0,71,0.00,,CLR,0.00,VWS V14.01,2013-01-13 22:22:00,
2013-01-13 14:24:00,33.7,25.3,30.38,West,270,1.0,4.0,71,0.00,,CLR,0.00,VWS V14.01,2013-01-13 22:24:00,
2013-01-13 14:27:00,33.7,25.6,30.38,West,270,0.0,1.0,72,0.00,,CLR,0.00,VWS V14.01,2013-01-13 22:27:00,
2013-01-13 14:29:00,33.8,26.1,30.38,West,270,0.0,2.0,73,0.00,,CLR,0.00,VWS V14.01,2013-01-13 22:29:00,
2013-01-13 14:30:00,33.8,26.1,30.38,West,270,2.0,3.0,73,0.00,,CLR,0.00,VWS V14.01,2013-01-13 22:30:00,
2013-01-13 14:32:00,33.8,25.4,30.38,West,264,4.0,4.0,71,0.00,,CLR,0.00,VWS V14.01,2013-01-13 22:32:00,
2013-01-13 14:37:00,33.7,25.0,30.38,West,264,2.0,3.0,70,0.00,,CLR,0.00,VWS V14.01,2013-01-13 22:37:00,
2013-01-13 14:39:00,33.7,25.3,30.38,West,264,3.0,3.0,71,0.00,,CLR,0.00,VWS V14.01,2013-01-13 22:39:00,
2013-01-13 14:42:00,33.5,25.1,30.38,West,263,3.0,5.0,71,0.00,,CLR,0.00,VWS V14.01,2013-01-13 22:42:00,
2013-01-13 14:46:00,33.5,25.1,30.38,West,263,2.0,2.0,71,0.00,,CLR,0.00,VWS V14.01,2013-01-13 22:46:00,
2013-01-13 14:47:00,33.5,25.1,30.38,West,263,1.0,2.0,71,0.00,,CLR,0.00,VWS V14.01,2013-01-13 22:47:00,
2013-01-13 14:49:00,33.5,25.1,30.38,West,263,0.0,2.0,71,0.00,,CLR,0.00,VWS V14.01,2013-01-13 22:49:00,
2013-01-13 14:50:00,33.5,25.1,30.38,West,263,1.0,2.0,71,0.00,,CLR,0.00,VWS V14.01,2013-01-13 22:50:00,
2013-01-13 14:53:00,33.5,25.1,30.38,West,263,0.0,2.0,71,0.00,,CLR,0.00,VWS V14.01,2013-01-13 22:53:00,
2013-01-13 14:54:00,33.5,24.8,30.38,West,263,0.0,2.0,70,0.00,,CLR,0.00,VWS V14.01,2013-01-13 22:54:00,
2013-01-13 14:55:00,33.5,25.1,30.38,West,261,2.0,3.0,71,0.00,,CLR,0.00,VWS V14.01,2013-01-13 22:55:00,
2013-01-13 14:58:00,33.5,24.8,30.38,West,261,0.0,3.0,70,0.00,,CLR,0.00,VWS V14.01,2013-01-13 22:58:00,
2013-01-13 14:59:00,33.5,24.8,30.38,West,261,0.0,3.0,70,0.00,,CLR,0.00,VWS V14.01,2013-01-13 22:59:00,
2013-01-13 15:00:00,33.7,25.3,30.38,West,261,2.0,2.0,71,0.00,,CLR,0.00,VWS V14.01,2013-01-13 23:00:00,
2013-01-13 15:05:00,33.8,25.4,30.38,West,261,3.0,3.0,71,0.00,,CLR,0.00,VWS V14.01,2013-01-13 23:05:00,
2013-01-13 15:06:00,33.8,25.4,30.38,West,261,0.0,3.0,71,0.00,,CLR,0.00,VWS V14.01,2013-01-13 23:06:00,
2013-01-13 15:08:00,33.8,25.4,30.38,West,261,3.0,3.0,71,0.00,,CLR,0.00,VWS V14.01,2013-01-13 23:08:00,
2013-01-13 15:09:00,33.8,25.4,30.38,West,261,2.0,5.0,71,0.00,,CLR,0.00,VWS V14.01,2013-01-13 23:09:00,
2013-01-13 15:11:00,33.8,25.1,30.38,West,265,1.0,3.0,70,0.00,,CLR,0.00,VWS V14.01,2013-01-13 23:11:00,
2013-01-13 15:14:00,33.8,25.1,30.38,West,265,0.0,3.0,70,0.00,,CLR,0.00,VWS V14.01,2013-01-13 23:14:00,
2013-01-13 15:16:00,33.8,25.4,30.38,West,265,0.0,1.0,71,0.00,,CLR,0.00,VWS V14.01,2013-01-13 23:16:00,
2013-01-13 15:19:00,34.1,26.4,30.38,West,265,1.0,2.0,73,0.00,,CLR,0.00,VWS V14.01,2013-01-13 23:19:00,
2013-01-13 15:20:00,34.1,26.4,30.38,West,265,0.0,1.0,73,0.00,,CLR,0.00,VWS V14.01,2013-01-13 23:20:00,
2013-01-13 15:21:00,34.1,26.4,30.38,West,265,0.0,2.0,73,0.00,,CLR,0.00,VWS V14.01,2013-01-13 23:21:00,
2013-01-13 15:24:00,34.0,25.6,30.38,West,265,0.0,2.0,71,0.00,,CLR,0.00,VWS V14.01,2013-01-13 23:24:00,
2013-01-13 15:26:00,34.0,25.6,30.38,West,265,2.0,3.0,71,0.00,,CLR,0.00,VWS V14.01,2013-01-13 23:26:00,
2013-01-13 15:27:00,34.0,25.3,30.38,West,265,1.0,3.0,70,0.00,,CLR,0.00,VWS V14.01,2013-01-13 23:27:00,
2013-01-13 15:30:00,34.0,25.3,30.38,West,265,0.0,0.0,70,0.00,,CLR,0.00,VWS V14.01,2013-01-13 23:30:00,
2013-01-13 15:31:00,34.0,25.3,30.38,West,265,0.0,0.0,70,0.00,,CLR,0.00,VWS V14.01,2013-01-13 23:31:00,
2013-01-13 15:35:00,33.8,25.1,30.38,West,265,1.0,3.0,70,0.00,,CLR,0.00,VWS V14.01,2013-01-13 23:35:00,
2013-01-13 15:36:00,33.8,25.1,30.38,West,265,0.0,3.0,70,0.00,,CLR,0.00,VWS V14.01,2013-01-13 23:36:00,
2013-01-13 15:39:00,33.8,24.7,30.38,West,265,2.0,3.0,69,0.00,,CLR,0.00,VWS V14.01,2013-01-13 23:39:00,
2013-01-13 15:44:00,33.8,25.4,30.38,West,265,0.0,2.0,71,0.00,,CLR,0.00,VWS V14.01,2013-01-13 23:44:00,
2013-01-13 15:48:00,34.0,25.6,30.38,West,265,1.0,1.0,71,0.00,,CLR,0.00,VWS V14.01,2013-01-13 23:48:00,
2013-01-13 15:49:00,34.0,25.6,30.38,WNW,282,3.0,4.0,71,0.00,,CLR,0.00,VWS V14.01,2013-01-13 23:49:00,
2013-01-13 15:53:00,34.0,25.3,30.38,WNW,282,0.0,3.0,70,0.00,,CLR,0.00,VWS V14.01,2013-01-13 23:53:00,
2013-01-13 15:54:00,34.0,25.6,30.38,WNW,282,0.0,3.0,71,0.00,,CLR,0.00,VWS V14.01,2013-01-13 23:54:00,
2013-01-13 15:57:00,34.0,25.3,30.38,WNW,282,2.0,3.0,70,0.00,,CLR,0.00,VWS V14.01,2013-01-13 23:57:00,
2013-01-13 15:59:00,33.8,24.7,30.38,WNW,282,0.0,3.0,69,0.00,,CLR,0.00,VWS V14.01,2013-01-13 23:59:00,
2013-01-13 16:01:00,33.8,25.1,30.38,WNW,282,0.0,0.0,70,0.00,,CLR,0.00,VWS V14.01,2013-01-14 00:01:00,
2013-01-13 16:04:00,33.8,25.1,30.38,WNW,282,0.0,0.0,70,0.00,,CLR,0.00,VWS V14.01,2013-01-14 00:04:00,
2013-01-13 16:05:00,33.8,25.1,30.38,WNW,282,0.0,0.0,70,0.00,,CLR,0.00,VWS V14.01,2013-01-14 00:05:00,
2013-01-13 16:09:00,33.8,25.1,30.38,WNW,282,0.0,0.0,70,0.00,,CLR,0.00,VWS V14.01,2013-01-14 00:09:00,
2013-01-13 16:11:00,33.8,25.4,30.38,WNW,282,0.0,0.0,71,0.00,,CLR,0.00,VWS V14.01,2013-01-14 00:11:00,
2013-01-13 16:14:00,33.7,25.3,30.38,WNW,282,0.0,0.0,71,0.00,,CLR,0.00,VWS V14.01,2013-01-14 00:14:00,
2013-01-13 16:16:00,33.7,25.3,30.38,WNW,282,0.0,0.0,71,0.00,,CLR,0.00,VWS V14.01,2013-01-14 00:16:00,
2013-01-13 16:21:00,33.7,25.3,30.38,WNW,282,0.0,0.0,71,0.00,,CLR,0.00,VWS V14.01,2013-01-14 00:21:00,
2013-01-13 16:22:00,33.5,25.1,30.38,WNW,282,0.0,0.0,71,0.00,,CLR,0.00,VWS V14.01,2013-01-14 00:22:00,
2013-01-13 16:26:00,33.5,25.1,30.38,WNW,282,0.0,0.0,71,0.00,,CLR,0.00,VWS V14.01,2013-01-14 00:26:00,
2013-01-13 16:29:00,33.4,25.0,30.38,WNW,282,0.0,0.0,71,0.00,,CLR,0.00,VWS V14.01,2013-01-14 00:29:00,
2013-01-13 16:30:00,33.4,25.0,30.38,WNW,282,0.0,0.0,71,0.00,,CLR,0.00,VWS V14.01,2013-01-14 00:30:00,
2013-01-13 16:31:00,33.2,24.8,30.38,WNW,282,0.0,0.0,71,0.00,,CLR,0.00,VWS V14.01,2013-01-14 00:31:00,
2013-01-13 16:35:00,32.9,24.5,30.38,WNW,282,1.0,1.0,71,0.00,,CLR,0.00,VWS V14.01,2013-01-14 00:35:00,
2013-01-13 16:36:00,32.9,24.5,30.38,WNW,282,1.0,1.0,71,0.00,,CLR,0.00,VWS V14.01,2013-01-14 00:36:00,
2013-01-13 16:37:00,32.8,24.8,30.38,WNW,282,0.0,1.0,72,0.00,,CLR,0.00,VWS V14.01,2013-01-14 00:37:00,
2013-01-13 16:38:00,32.8,24.8,30.38,WNW,282,1.0,2.0,72,0.00,,CLR,0.00,VWS V14.01,2013-01-14 00:38:00,
2013-01-13 16:41:00,32.7,25.0,30.38,WNW,282,1.0,2.0,73,0.00,,CLR,0.00,VWS V14.01,2013-01-14 00:41:00,
2013-01-13 16:43:00,32.5,25.1,30.38,WNW,282,0.0,2.0,74,0.00,,CLR,0.00,VWS V14.01,2013-01-14 00:43:00,
2013-01-13 16:44:00,32.5,25.1,30.38,WNW,282,1.0,2.0,74,0.00,,CLR,0.00,VWS V14.01,2013-01-14 00:44:00,
2013-01-13 16:48:00,32.2,25.2,30.38,WNW,282,0.0,1.0,75,0.00,,CLR,0.00,VWS V14.01,2013-01-14 00:48:00,
2013-01-13 16:49:00,32.2,25.2,30.38,WNW,282,0.0,1.0,75,0.00,,CLR,0.00,VWS V14.01,2013-01-14 00:49:00,
2013-01-13 16:50:00,32.2,25.5,30.38,WNW,282,0.0,0.0,76,0.00,,CLR,0.00,VWS V14.01,2013-01-14 00:50:00,
2013-01-13 16:54:00,32.1,25.4,30.38,WNW,282,0.0,0.0,76,0.00,,CLR,0.00,VWS V14.01,2013-01-14 00:54:00,
2013-01-13 16:56:00,31.9,25.2,30.38,WNW,282,0.0,0.0,76,0.00,,CLR,0.00,VWS V14.01,2013-01-14 00:56:00,
2013-01-13 16:59:00,31.9,25.2,30.38,WNW,282,0.0,0.0,76,0.00,,CLR,0.00,VWS V14.01,2013-01-14 00:59:00,
2013-01-13 17:01:00,31.8,25.4,30.38,WNW,282,0.0,0.0,77,0.00,,CLR,0.00,VWS V14.01,2013-01-14 01:01:00,
2013-01-13 17:04:00,31.8,25.4,30.38,WNW,282,0.0,0.0,77,0.00,,CLR,0.00,VWS V14.01,2013-01-14 01:04:00,
2013-01-13 17:06:00,31.6,25.2,30.38,WNW,282,0.0,0.0,77,0.00,,CLR,0.00,VWS V14.01,2013-01-14 01:06:00,
2013-01-13 17:09:00,31.5,25.1,30.38,WNW,282,0.0,1.0,77,0.00,,CLR,0.00,VWS V14.01,2013-01-14 01:09:00,
2013-01-13 17:10:00,31.5,25.1,30.38,WNW,282,0.0,1.0,77,0.00,,CLR,0.00,VWS V14.01,2013-01-14 01:10:00,
2013-01-13 17:13:00,31.3,25.2,30.38,WNW,282,0.0,1.0,78,0.00,,CLR,0.00,VWS V14.01,2013-01-14 01:13:00,
2013-01-13 17:14:00,31.2,25.1,30.39,WNW,282,0.0,1.0,78,0.00,,CLR,0.00,VWS V14.01,2013-01-14 01:14:00,
2013-01-13 17:16:00,31.2,25.1,30.39,WNW,282,0.0,0.0,78,0.00,,CLR,0.00,VWS V14.01,2013-01-14 01:16:00,
2013-01-13 17:17:00,31.2,25.1,30.39,WNW,282,0.0,0.0,78,0.00,,CLR,0.00,VWS V14.01,2013-01-14 01:17:00,
2013-01-13 17:18:00,31.0,25.0,30.39,WNW,282,0.0,0.0,78,0.00,,CLR,0.00,VWS V14.01,2013-01-14 01:18:00,
2013-01-13 17:21:00,31.0,25.0,30.39,WNW,282,0.0,0.0,78,0.00,,CLR,0.00,VWS V14.01,2013-01-14 01:21:00,
2013-01-13 17:23:00,30.9,25.2,30.39,WNW,282,0.0,0.0,79,0.00,,CLR,0.00,VWS V14.01,2013-01-14 01:23:00,
2013-01-13 17:24:00,30.9,25.2,30.39,WNW,282,0.0,0.0,79,0.00,,CLR,0.00,VWS V14.01,2013-01-14 01:24:00,
2013-01-13 17:26:00,30.7,25.0,30.39,WNW,282,0.0,0.0,79,0.00,,CLR,0.00,VWS V14.01,2013-01-14 01:26:00,
2013-01-13 17:27:00,30.7,25.0,30.39,WNW,282,0.0,0.0,79,0.00,,CLR,0.00,VWS V14.01,2013-01-14 01:27:00,
2013-01-13 17:29:00,30.6,24.9,30.39,WNW,282,0.0,0.0,79,0.00,,CLR,0.00,VWS V14.01,2013-01-14 01:29:00,
2013-01-13 17:33:00,30.3,24.6,30.39,WNW,282,0.0,0.0,79,0.00,,CLR,0.00,VWS V14.01,2013-01-14 01:33:00,
2013-01-13 17:34:00,30.3,24.9,30.39,WNW,282,1.0,1.0,80,0.00,,CLR,0.00,VWS V14.01,2013-01-14 01:34:00,
2013-01-13 17:39:00,30.0,24.6,30.39,WNW,282,0.0,1.0,80,0.00,,CLR,0.00,VWS V14.01,2013-01-14 01:39:00,
2013-01-13 17:40:00,30.0,24.6,30.39,WNW,282,0.0,0.0,80,0.00,,CLR,0.00,VWS V14.01,2013-01-14 01:40:00,
2013-01-13 17:43:00,29.8,24.7,30.39,WNW,282,0.0,0.0,81,0.00,,CLR,0.00,VWS V14.01,2013-01-14 01:43:00,
2013-01-13 17:44:00,29.8,24.7,30.40,WNW,282,0.0,0.0,81,0.00,,CLR,0.00,VWS V14.01,2013-01-14 01:44:00,
2013-01-13 17:45:00,29.8,24.7,30.40,WNW,282,0.0,0.0,81,0.00,,CLR,0.00,VWS V14.01,2013-01-14 01:45:00,
2013-01-13 17:49:00,29.5,24.7,30.40,WNW,282,2.0,2.0,82,0.00,,CLR,0.00,VWS V14.01,2013-01-14 01:49:00,
2013-01-13 17:53:00,29.4,24.6,30.40,WNW,282,2.0,2.0,82,0.00,,CLR,0.00,VWS V14.01,2013-01-14 01:53:00,
2013-01-13 17:54:00,29.4,24.6,30.40,WNW,282,1.0,2.0,82,0.00,,CLR,0.00,VWS V14.01,2013-01-14 01:54:00,
2013-01-13 17:55:00,29.4,24.6,30.40,WNW,282,1.0,2.0,82,0.00,,CLR,0.00,VWS V14.01,2013-01-14 01:55:00,
2013-01-13 17:57:00,29.4,24.9,30.40,WNW,282,1.0,2.0,83,0.00,,CLR,0.00,VWS V14.01,2013-01-14 01:57:00,
2013-01-13 17:58:00,29.4,24.9,30.40,WNW,282,0.0,2.0,83,0.00,,CLR,0.00,VWS V14.01,2013-01-14 01:58:00,
2013-01-13 18:02:00,29.3,24.8,30.40,WNW,282,1.0,2.0,83,0.00,,CLR,0.00,VWS V14.01,2013-01-14 02:02:00,
2013-01-13 18:04:00,29.3,24.8,30.40,WNW,282,0.0,2.0,83,0.00,,CLR,0.00,VWS V14.01,2013-01-14 02:04:00,
2013-01-13 18:05:00,29.1,24.6,30.40,WNW,282,0.0,0.0,83,0.00,,CLR,0.00,VWS V14.01,2013-01-14 02:05:00,
2013-01-13 18:07:00,29.1,24.6,30.40,WNW,282,0.0,0.0,83,0.00,,CLR,0.00,VWS V14.01,2013-01-14 02:07:00,
2013-01-13 18:09:00,29.1,24.6,30.40,WNW,282,0.0,0.0,83,0.00,,CLR,0.00,VWS V14.01,2013-01-14 02:09:00,
2013-01-13 18:13:00,29.0,24.5,30.40,WNW,282,0.0,0.0,83,0.00,,CLR,0.00,VWS V14.01,2013-01-14 02:13:00,
2013-01-13 18:14:00,29.0,24.5,30.40,WNW,282,0.0,0.0,83,0.00,,CLR,0.00,VWS V14.01,2013-01-14 02:14:00,
2013-01-13 18:18:00,28.8,24.6,30.40,WNW,282,0.0,0.0,84,0.00,,CLR,0.00,VWS V14.01,2013-01-14 02:18:00,
2013-01-13 18:19:00,28.8,24.6,30.40,WNW,282,0.0,0.0,84,0.00,,CLR,0.00,VWS V14.01,2013-01-14 02:19:00,
2013-01-13 18:21:00,28.8,24.6,30.40,WNW,282,0.0,0.0,84,0.00,,CLR,0.00,VWS V14.01,2013-01-14 02:21:00,
2013-01-13 18:23:00,28.8,24.6,30.40,WNW,282,0.0,0.0,84,0.00,,CLR,0.00,VWS V14.01,2013-01-14 02:23:00,
2013-01-13 18:24:00,28.8,24.6,30.40,WNW,282,0.0,0.0,84,0.00,,CLR,0.00,VWS V14.01,2013-01-14 02:24:00,
2013-01-13 18:29:00,28.7,24.5,30.40,WNW,282,0.0,0.0,84,0.00,,CLR,0.00,VWS V14.01,2013-01-14 02:29:00,
2013-01-13 18:32:00,28.7,24.5,30.40,WNW,282,0.0,0.0,84,0.00,,CLR,0.00,VWS V14.01,2013-01-14 02:32:00,
2013-01-13 18:34:00,28.7,24.8,30.40,WNW,282,0.0,0.0,85,0.00,,CLR,0.00,VWS V14.01,2013-01-14 02:34:00,
2013-01-13 18:35:00,28.5,24.6,30.40,WNW,282,0.0,0.0,85,0.00,,CLR,0.00,VWS V14.01,2013-01-14 02:35:00,
2013-01-13 18:36:00,28.5,24.6,30.40,WNW,282,0.0,0.0,85,0.00,,CLR,0.00,VWS V14.01,2013-01-14 02:36:00,
2013-01-13 18:37:00,28.5,24.6,30.40,WNW,282,0.0,0.0,85,0.00,,CLR,0.00,VWS V14.01,2013-01-14 02:37:00,
2013-01-13 18:40:00,28.5,24.6,30.40,WNW,282,0.0,0.0,85,0.00,,CLR,0.00,VWS V14.01,2013-01-14 02:40:00,
2013-01-13 18:43:00,28.4,24.5,30.40,WNW,282,0.0,0.0,85,0.00,,CLR,0.00,VWS V14.01,2013-01-14 02:43:00,
2013-01-13 18:44:00,28.4,24.5,30.40,WNW,282,0.0,0.0,85,0.00,,CLR,0.00,VWS V14.01,2013-01-14 02:44:00,
2013-01-13 18:46:00,28.4,24.5,30.40,WNW,282,0.0,0.0,85,0.00,,CLR,0.00,VWS V14.01,2013-01-14 02:46:00,
2013-01-13 18:48:00,28.4,24.5,30.40,WNW,282,0.0,0.0,85,0.00,,CLR,0.00,VWS V14.01,2013-01-14 02:48:00,
2013-01-13 18:51:00,28.2,24.3,30.40,WNW,282,0.0,1.0,85,0.00,,CLR,0.00,VWS V14.01,2013-01-14 02:51:00,
2013-01-13 18:53:00,28.2,24.3,30.40,WNW,282,0.0,1.0,85,0.00,,CLR,0.00,VWS V14.01,2013-01-14 02:53:00,
2013-01-13 18:54:00,28.2,24.3,30.40,WNW,282,0.0,1.0,85,0.00,,CLR,0.00,VWS V14.01,2013-01-14 02:54:00,
2013-01-13 18:56:00,28.1,24.5,30.40,WNW,282,0.0,0.0,86,0.00,,CLR,0.00,VWS V14.01,2013-01-14 02:56:00,
2013-01-13 19:00:00,28.1,24.5,30.38,WNW,282,0.0,0.0,86,0.00,,CLR,0.00,VWS V14.01,2013-01-14 03:00:00,
2013-01-13 19:02:00,28.1,24.5,30.38,WNW,282,0.0,0.0,86,0.00,,CLR,0.00,VWS V14.01,2013-01-14 03:02:00,
2013-01-13 19:03:00,27.9,24.3,30.38,WNW,282,0.0,0.0,86,0.00,,CLR,0.00,VWS V14.01,2013-01-14 03:03:00,
2013-01-13 19:06:00,27.9,24.3,30.38,WNW,282,0.0,0.0,86,0.00,,CLR,0.00,VWS V14.01,2013-01-14 03:06:00,
2013-01-13 19:09:00,27.8,24.2,30.38,WNW,282,2.0,2.0,86,0.00,,CLR,0.00,VWS V14.01,2013-01-14 03:09:00,
2013-01-13 19:11:00,27.8,24.4,30.38,WNW,282,1.0,2.0,87,0.00,,CLR,0.00,VWS V14.01,2013-01-14 03:11:00,
2013-01-13 19:13:00,27.8,24.4,30.38,WNW,282,1.0,2.0,87,0.00,,CLR,0.00,VWS V14.01,2013-01-14 03:13:00,
2013-01-13 19:16:00,27.6,24.2,30.39,West,278,2.0,3.0,87,0.00,,CLR,0.00,VWS V14.01,2013-01-14 03:16:00,
2013-01-13 19:19:00,27.6,24.5,30.39,WNW,282,2.0,3.0,88,0.00,,CLR,0.00,VWS V14.01,2013-01-14 03:19:00,
2013-01-13 19:20:00,27.6,24.5,30.39,WNW,282,1.0,2.0,88,0.00,,CLR,0.00,VWS V14.01,2013-01-14 03:20:00,
2013-01-13 19:21:00,27.6,24.5,30.39,WNW,282,1.0,2.0,88,0.00,,CLR,0.00,VWS V14.01,2013-01-14 03:21:00,
2013-01-13 19:25:00,27.6,24.5,30.39,WNW,282,2.0,3.0,88,0.00,,CLR,0.00,VWS V14.01,2013-01-14 03:25:00,
2013-01-13 19:26:00,27.6,24.5,30.39,WNW,282,2.0,3.0,88,0.00,,CLR,0.00,VWS V14.01,2013-01-14 03:26:00,
2013-01-13 19:28:00,27.6,24.5,30.39,WNW,282,2.0,3.0,88,0.00,,CLR,0.00,VWS V14.01,2013-01-14 03:28:00,
2013-01-13 19:30:00,27.6,24.8,30.40,WNW,282,2.0,2.0,89,0.00,,CLR,0.00,VWS V14.01,2013-01-14 03:30:00,
2013-01-13 19:33:00,27.8,25.0,30.40,WNW,282,1.0,2.0,89,0.00,,CLR,0.00,VWS V14.01,2013-01-14 03:33:00,
2013-01-13 19:34:00,27.8,25.0,30.40,WNW,282,1.0,2.0,89,0.00,,CLR,0.00,VWS V14.01,2013-01-14 03:34:00,
2013-01-13 19:37:00,27.8,25.0,30.40,WNW,282,1.0,2.0,89,0.00,,CLR,0.00,VWS V14.01,2013-01-14 03:37:00,
2013-01-13 19:39:00,27.9,25.1,30.40,WNW,282,1.0,2.0,89,0.00,,CLR,0.00,VWS V14.01,2013-01-14 03:39:00,
2013-01-13 19:44:00,28.1,25.3,30.41,WNW,282,0.0,2.0,89,0.00,,CLR,0.00,VWS V14.01,2013-01-14 03:44:00,
2013-01-13 19:45:00,28.1,25.3,30.41,WNW,282,0.0,0.0,89,0.00,,CLR,0.00,VWS V14.01,2013-01-14 03:45:00,
2013-01-13 19:47:00,28.1,25.3,30.41,WNW,282,0.0,0.0,89,0.00,,CLR,0.00,VWS V14.01,2013-01-14 03:47:00,
2013-01-13 19:48:00,28.1,25.3,30.41,WNW,282,0.0,0.0,89,0.00,,CLR,0.00,VWS V14.01,2013-01-14 03:48:00,
2013-01-13 19:50:00,27.9,25.1,30.41,WNW,282,0.0,0.0,89,0.00,,CLR,0.00,VWS V14.01,2013-01-14 03:50:00,
2013-01-13 19:51:00,27.9,25.1,30.41,WNW,282,0.0,0.0,89,0.00,,CLR,0.00,VWS V14.01,2013-01-14 03:51:00,
2013-01-13 19:53:00,27.9,25.1,30.41,WNW,282,0.0,0.0,89,0.00,,CLR,0.00,VWS V14.01,2013-01-14 03:53:00,
2013-01-13 19:54:00,27.9,25.1,30.41,WNW,282,0.0,0.0,89,0.00,,CLR,0.00,VWS V14.01,2013-01-14 03:54:00,
2013-01-13 19:57:00,27.9,25.1,30.41,WNW,282,0.0,0.0,89,0.00,,CLR,0.00,VWS V14.01,2013-01-14 03:57:00,
2013-01-13 19:59:00,27.9,25.1,30.41,WNW,282,0.0,0.0,89,0.00,,CLR,0.00,VWS V14.01,2013-01-14 03:59:00,
2013-01-13 20:00:00,27.9,25.1,30.41,WNW,282,0.0,0.0,89,0.00,,CLR,0.00,VWS V14.01,2013-01-14 04:00:00,
2013-01-13 20:02:00,27.8,25.0,30.41,WNW,282,0.0,0.0,89,0.00,,CLR,0.00,VWS V14.01,2013-01-14 04:02:00,
2013-01-13 20:04:00,27.8,25.0,30.41,WNW,282,0.0,0.0,89,0.00,,CLR,0.00,VWS V14.01,2013-01-14 04:04:00,
2013-01-13 20:07:00,27.8,25.0,30.41,WNW,282,0.0,0.0,89,0.00,,CLR,0.00,VWS V14.01,2013-01-14 04:07:00,
2013-01-13 20:08:00,27.8,25.0,30.41,WNW,282,0.0,0.0,89,0.00,,CLR,0.00,VWS V14.01,2013-01-14 04:08:00,
2013-01-13 20:12:00,27.6,24.8,30.41,WNW,282,0.0,0.0,89,0.00,,CLR,0.00,VWS V14.01,2013-01-14 04:12:00,
2013-01-13 20:13:00,27.6,24.8,30.41,WNW,282,0.0,0.0,89,0.00,,CLR,0.00,VWS V14.01,2013-01-14 04:13:00,
2013-01-13 20:16:00,27.6,24.8,30.41,WNW,282,0.0,0.0,89,0.00,,CLR,0.00,VWS V14.01,2013-01-14 04:16:00,
2013-01-13 20:17:00,27.6,24.8,30.41,WNW,282,0.0,0.0,89,0.00,,CLR,0.00,VWS V14.01,2013-01-14 04:17:00,
2013-01-13 20:20:00,27.6,24.8,30.41,WNW,282,1.0,2.0,89,0.00,,CLR,0.00,VWS V14.01,2013-01-14 04:20:00,
2013-01-13 20:21:00,27.6,24.8,30.41,WNW,282,1.0,2.0,89,0.00,,CLR,0.00,VWS V14.01,2013-01-14 04:21:00,
2013-01-13 20:22:00,27.6,25.1,30.41,WNW,282,1.0,2.0,90,0.00,,CLR,0.00,VWS V14.01,2013-01-14 04:22:00,
2013-01-13 20:26:00,27.6,25.1,30.41,WNW,282,2.0,2.0,90,0.00,,CLR,0.00,VWS V14.01,2013-01-14 04:26:00,
2013-01-13 20:27:00,27.6,25.1,30.41,WNW,282,2.0,2.0,90,0.00,,CLR,0.00,VWS V14.01,2013-01-14 04:27:00,
2013-01-13 20:29:00,27.6,25.1,30.41,WNW,282,1.0,2.0,90,0.00,,CLR,0.00,VWS V14.01,2013-01-14 04:29:00,
2013-01-13 20:33:00,27.6,25.1,30.41,WNW,282,0.0,1.0,90,0.00,,CLR,0.00,VWS V14.01,2013-01-14 04:33:00,
2013-01-13 20:34:00,27.6,25.1,30.41,WNW,282,0.0,1.0,90,0.00,,CLR,0.00,VWS V14.01,2013-01-14 04:34:00,
2013-01-13 20:37:00,27.6,25.1,30.41,WNW,282,0.0,0.0,90,0.00,,CLR,0.00,VWS V14.01,2013-01-14 04:37:00,
2013-01-13 20:42:00,27.8,25.5,30.41,WNW,282,1.0,2.0,91,0.00,,CLR,0.00,VWS V14.01,2013-01-14 04:42:00,
2013-01-13 20:43:00,27.8,25.5,30.41,WNW,282,0.0,2.0,91,0.00,,CLR,0.00,VWS V14.01,2013-01-14 04:43:00,
2013-01-13 20:44:00,27.8,25.5,30.41,WNW,282,0.0,2.0,91,0.00,,CLR,0.00,VWS V14.01,2013-01-14 04:44:00,
2013-01-13 20:48:00,27.8,25.5,30.41,WNW,282,0.0,0.0,91,0.00,,CLR,0.00,VWS V14.01,2013-01-14 04:48:00,
2013-01-13 20:49:00,27.8,25.5,30.41,WNW,282,0.0,0.0,91,0.00,,CLR,0.00,VWS V14.01,2013-01-14 04:49:00,
2013-01-13 20:52:00,27.8,25.5,30.41,WNW,282,0.0,0.0,91,0.00,,CLR,0.00,VWS V14.01,2013-01-14 04:52:00,
2013-01-13 20:54:00,27.8,25.5,30.41,WNW,282,0.0,0.0,91,0.00,,CLR,0.00,VWS V14.01,2013-01-14 04:54:00,
2013-01-13 20:57:00,27.8,25.5,30.41,WNW,282,0.0,0.0,91,0.00,,CLR,0.00,VWS V14.01,2013-01-14 04:57:00,
2013-01-13 21:00:00,27.6,25.3,30.41,WNW,282,0.0,1.0,91,0.00,,FEW043,0.00,VWS V14.01,2013-01-14 05:00:00,
2013-01-13 21:04:00,27.6,25.3,30.41,WNW,282,1.0,1.0,91,0.00,,FEW043,0.00,VWS V14.01,2013-01-14 05:04:00,
2013-01-13 21:06:00,27.6,25.3,30.41,WNW,282,1.0,2.0,91,0.00,,FEW043,0.00,VWS V14.01,2013-01-14 05:06:00,
2013-01-13 21:07:00,27.6,25.3,30.41,WNW,282,1.0,2.0,91,0.00,,FEW043,0.00,VWS V14.01,2013-01-14 05:07:00,
2013-01-13 21:08:00,27.6,25.3,30.41,WNW,282,1.0,2.0,91,0.00,,FEW043,0.00,VWS V14.01,2013-01-14 05:08:00,
2013-01-13 21:09:00,27.6,25.3,30.41,WNW,282,2.0,2.0,91,0.00,,FEW043,0.00,VWS V14.01,2013-01-14 05:09:00,
2013-01-13 21:13:00,27.6,25.3,30.41,WNW,282,0.0,2.0,91,0.00,,FEW043,0.00,VWS V14.01,2013-01-14 05:13:00,
2013-01-13 21:14:00,27.6,25.3,30.40,WNW,282,0.0,2.0,91,0.00,,FEW043,0.00,VWS V14.01,2013-01-14 05:14:00,
2013-01-13 21:15:00,27.6,25.3,30.40,WNW,282,0.0,0.0,91,0.00,,FEW043,0.00,VWS V14.01,2013-01-14 05:15:00,
2013-01-13 21:19:00,27.5,25.5,30.40,WNW,282,0.0,0.0,92,0.00,,FEW043,0.00,VWS V14.01,2013-01-14 05:19:00,
2013-01-13 21:20:00,27.5,25.5,30.40,WNW,282,0.0,0.0,92,0.00,,FEW043,0.00,VWS V14.01,2013-01-14 05:20:00,
2013-01-13 21:22:00,27.5,25.5,30.40,WNW,282,1.0,2.0,92,0.00,,FEW043,0.00,VWS V14.01,2013-01-14 05:22:00,
2013-01-13 21:25:00,27.5,25.5,30.40,WNW,282,1.0,1.0,92,0.00,,FEW043,0.00,VWS V14.01,2013-01-14 05:25:00,
2013-01-13 21:27:00,27.5,25.5,30.40,WNW,282,0.0,1.0,92,0.00,,FEW043,0.00,VWS V14.01,2013-01-14 05:27:00,
2013-01-13 21:29:00,27.5,25.5,30.40,WNW,282,0.0,1.0,92,0.00,,FEW043,0.00,VWS V14.01,2013-01-14 05:29:00,
2013-01-13 21:30:00,27.5,25.5,30.40,WNW,282,0.0,0.0,92,0.00,,FEW043,0.00,VWS V14.01,2013-01-14 05:30:00,
2013-01-13 21:34:00,27.5,25.5,30.40,WNW,282,1.0,2.0,92,0.00,,FEW043,0.00,VWS V14.01,2013-01-14 05:34:00,
2013-01-13 21:35:00,27.5,25.5,30.40,WNW,282,1.0,1.0,92,0.00,,FEW043,0.00,VWS V14.01,2013-01-14 05:35:00,
2013-01-13 21:39:00,27.5,25.5,30.40,WNW,282,1.0,2.0,92,0.00,,FEW043,0.00,VWS V14.01,2013-01-14 05:39:00,
2013-01-13 21:40:00,27.5,25.5,30.40,WNW,282,1.0,1.0,92,0.00,,FEW043,0.00,VWS V14.01,2013-01-14 05:40:00,
2013-01-13 21:41:00,27.5,25.5,30.40,WNW,282,1.0,2.0,92,0.00,,FEW043,0.00,VWS V14.01,2013-01-14 05:41:00,
2013-01-13 21:46:00,27.5,25.5,30.41,WNW,282,1.0,1.0,92,0.00,,FEW043,0.00,VWS V14.01,2013-01-14 05:46:00,
2013-01-13 21:47:00,27.5,25.5,30.41,WNW,282,1.0,2.0,92,0.00,,FEW043,0.00,VWS V14.01,2013-01-14 05:47:00,
2013-01-13 21:49:00,27.5,25.5,30.41,WNW,282,1.0,2.0,92,0.00,,FEW043,0.00,VWS V14.01,2013-01-14 05:49:00,
2013-01-13 21:51:00,27.5,25.8,30.41,WNW,282,1.0,1.0,93,0.00,,FEW043,0.00,VWS V14.01,2013-01-14 05:51:00,
2013-01-13 21:52:00,27.5,25.8,30.41,WNW,282,1.0,1.0,93,0.00,,FEW043,0.00,VWS V14.01,2013-01-14 05:52:00,
2013-01-13 21:54:00,27.6,25.8,30.41,WNW,282,0.0,1.0,93,0.00,,FEW043,0.00,VWS V14.01,2013-01-14 05:54:00,
2013-01-13 21:59:00,27.6,25.8,30.41,WNW,282,1.0,1.0,93,0.00,,FEW043,0.00,VWS V14.01,2013-01-14 05:59:00,
2013-01-13 22:00:00,27.6,25.8,30.41,WNW,282,2.0,2.0,93,0.00,,FEW043,0.00,VWS V14.01,2013-01-14 06:00:00,
2013-01-13 22:01:00,27.6,25.8,30.41,WNW,282,1.0,2.0,93,0.00,,BKN100,0.00,VWS V14.01,2013-01-14 06:01:00,
2013-01-13 22:05:00,27.6,25.8,30.41,WNW,282,0.0,0.0,93,0.00,,BKN100,0.00,VWS V14.01,2013-01-14 06:05:00,
2013-01-13 22:07:00,27.6,25.8,30.41,WNW,282,0.0,0.0,93,0.00,,BKN100,0.00,VWS V14.01,2013-01-14 06:07:00,
2013-01-13 22:09:00,27.6,25.8,30.41,WNW,282,0.0,0.0,93,0.00,,BKN100,0.00,VWS V14.01,2013-01-14 06:09:00,
2013-01-13 22:14:00,27.8,26.0,30.42,WNW,282,0.0,0.0,93,0.00,,BKN100,0.00,VWS V14.01,2013-01-14 06:14:00,
2013-01-13 22:19:00,27.8,26.0,30.42,WNW,282,0.0,0.0,93,0.00,,BKN100,0.00,VWS V14.01,2013-01-14 06:19:00,
2013-01-13 22:21:00,27.8,26.0,30.42,WNW,282,0.0,0.0,93,0.00,,BKN100,0.00,VWS V14.01,2013-01-14 06:21:00,
2013-01-13 22:24:00,27.8,26.0,30.42,WNW,282,0.0,0.0,93,0.00,,BKN100,0.00,VWS V14.01,2013-01-14 06:24:00,
2013-01-13 22:25:00,27.8,26.0,30.42,WNW,282,0.0,0.0,93,0.00,,BKN100,0.00,VWS V14.01,2013-01-14 06:25:00,
2013-01-13 22:29:00,27.9,26.1,30.42,WNW,282,0.0,2.0,93,0.00,,BKN100,0.00,VWS V14.01,2013-01-14 06:29:00,
2013-01-13 22:34:00,27.9,26.1,30.42,WNW,282,0.0,0.0,93,0.00,,BKN100,0.00,VWS V14.01,2013-01-14 06:34:00,
2013-01-13 22:35:00,27.9,26.1,30.42,WNW,282,1.0,2.0,93,0.00,,BKN100,0.00,VWS V14.01,2013-01-14 06:35:00,
2013-01-13 22:40:00,27.9,26.1,30.42,WNW,282,0.0,0.0,93,0.00,,BKN100,0.00,VWS V14.01,2013-01-14 06:40:00,
2013-01-13 22:41:00,27.9,26.1,30.42,WNW,282,0.0,0.0,93,0.00,,BKN100,0.00,VWS V14.01,2013-01-14 06:41:00,
2013-01-13 22:44:00,27.9,26.1,30.42,WNW,282,0.0,0.0,93,0.00,,BKN100,0.00,VWS V14.01,2013-01-14 06:44:00,
2013-01-13 22:45:00,27.9,26.1,30.42,WNW,282,0.0,0.0,93,0.00,,BKN100,0.00,VWS V14.01,2013-01-14 06:45:00,
2013-01-13 22:49:00,27.8,26.0,30.42,WNW,282,0.0,0.0,93,0.00,,BKN100,0.00,VWS V14.01,2013-01-14 06:49:00,
2013-01-13 22:51:00,27.8,26.0,30.42,WNW,282,0.0,0.0,93,0.00,,BKN100,0.00,VWS V14.01,2013-01-14 06:51:00,
2013-01-13 22:54:00,27.8,26.0,30.42,WNW,282,0.0,0.0,93,0.00,,BKN100,0.00,VWS V14.01,2013-01-14 06:54:00,
2013-01-13 22:57:00,27.9,26.1,30.42,WNW,282,0.0,0.0,93,0.00,,BKN100,0.00,VWS V14.01,2013-01-14 06:57:00,
2013-01-13 22:59:00,27.9,26.1,30.41,WNW,282,0.0,0.0,93,0.00,,BKN100,0.00,VWS V14.01,2013-01-14 06:59:00,
2013-01-13 23:02:00,27.9,26.1,30.41,WNW,282,0.0,0.0,93,0.00,,BKN048,0.00,VWS V14.01,2013-01-14 07:02:00,
2013-01-13 23:03:00,27.9,26.1,30.41,WNW,282,0.0,0.0,93,0.00,,BKN048,0.00,VWS V14.01,2013-01-14 07:03:00,
2013-01-13 23:05:00,27.9,26.1,30.41,WNW,282,0.0,0.0,93,0.00,,BKN048,0.00,VWS V14.01,2013-01-14 07:05:00,
2013-01-13 23:07:00,27.9,26.1,30.41,WNW,282,0.0,0.0,93,0.00,,BKN048,0.00,VWS V14.01,2013-01-14 07:07:00,
2013-01-13 23:13:00,27.9,26.1,30.41,WNW,282,0.0,0.0,93,0.00,,BKN048,0.00,VWS V14.01,2013-01-14 07:13:00,
2013-01-13 23:14:00,27.9,26.1,30.41,WNW,282,0.0,0.0,93,0.00,,BKN048,0.00,VWS V14.01,2013-01-14 07:14:00,
2013-01-13 23:18:00,27.9,26.1,30.41,West,278,0.0,0.0,93,0.00,,BKN048,0.00,VWS V14.01,2013-01-14 07:18:00,
2013-01-13 23:19:00,27.9,26.1,30.41,WNW,282,0.0,0.0,93,0.00,,BKN048,0.00,VWS V14.01,2013-01-14 07:19:00,
2013-01-13 23:23:00,27.9,26.1,30.41,WNW,282,0.0,0.0,93,0.00,,BKN048,0.00,VWS V14.01,2013-01-14 07:23:00,
2013-01-13 23:24:00,27.9,26.1,30.41,WNW,282,0.0,0.0,93,0.00,,BKN048,0.00,VWS V14.01,2013-01-14 07:24:00,
2013-01-13 23:28:00,27.9,26.1,30.41,WNW,282,0.0,0.0,93,0.00,,BKN048,0.00,VWS V14.01,2013-01-14 07:28:00,
2013-01-13 23:32:00,28.1,26.3,30.41,WNW,282,0.0,0.0,93,0.00,,BKN048,0.00,VWS V14.01,2013-01-14 07:32:00,
2013-01-13 23:33:00,28.1,26.3,30.41,WNW,282,0.0,0.0,93,0.00,,BKN048,0.00,VWS V14.01,2013-01-14 07:33:00,
2013-01-13 23:38:00,28.1,26.3,30.41,WNW,282,0.0,0.0,93,0.00,,BKN048,0.00,VWS V14.01,2013-01-14 07:38:00,
2013-01-13 23:40:00,28.1,26.3,30.41,WNW,282,0.0,0.0,93,0.00,,BKN048,0.00,VWS V14.01,2013-01-14 07:40:00,
2013-01-13 23:41:00,28.1,26.3,30.41,WNW,282,0.0,0.0,93,0.00,,BKN048,0.00,VWS V14.01,2013-01-14 07:41:00,
2013-01-13 23:44:00,28.1,26.3,30.40,WNW,282,0.0,0.0,93,0.00,,BKN048,0.00,VWS V14.01,2013-01-14 07:44:00,
2013-01-13 23:45:00,28.1,26.3,30.40,WNW,282,0.0,0.0,93,0.00,,BKN048,0.00,VWS V14.01,2013-01-14 07:45:00,
2013-01-13 23:47:00,28.1,26.3,30.40,WNW,282,1.0,1.0,93,0.00,,BKN048,0.00,VWS V14.01,2013-01-14 07:47:00,
2013-01-13 23:49:00,28.1,26.3,30.40,WNW,282,0.0,1.0,93,0.00,,BKN048,0.00,VWS V14.01,2013-01-14 07:49:00,
2013-01-13 23:50:00,28.1,26.3,30.40,WNW,282,0.0,0.0,93,0.00,,BKN048,0.00,VWS V14.01,2013-01-14 07:50:00,
2013-01-13 23:53:00,28.1,26.3,30.40,WNW,282,0.0,0.0,93,0.00,,BKN048,0.00,VWS V14.01,2013-01-14 07:53:00,
2013-01-13 23:54:00,28.2,26.4,30.40,WNW,282,0.0,0.0,93,0.00,,BKN048,0.00,VWS V14.01,2013-01-14 07:54:00,
2013-01-13 23:59:00,28.2,26.7,30.39,WNW,282,0.0,0.0,94,0.00,,BKN048,0.00,VWS V14.01,2013-01-14 07:59:00,